<?xml version="1.0" encoding="UTF-8" ?>
<gpx version="1.1" xmlns:xsi="http://www.w3.org/2001/XMLSchema-instance" 
    xmlns="http://www.topografix.com/GPX/1/1" 
    xsi:schemaLocation="http://www.topografix.com/GPX/1/1 http://www.topografix.com/GPX/1/1/gpx.xsd" 
    creator="Openrunner - https://www.openrunner.com" >	<trk>
						<name>ISCYCLO Circuit Rando Etangs 2024 Gravel 62km-18636723</name>
						<trkseg>
					<trkpt lat="43.501100" lon="4.995000">
						<ele>33</ele>
						<time>2025-04-28T16:24:43Z</time>
					</trkpt>
					<trkpt lat="43.501200" lon="4.993460">
						<ele>31</ele>
						<time>2025-04-28T16:25:03Z</time>
					</trkpt>
					<trkpt lat="43.501670" lon="4.993470">
						<ele>31</ele>
						<time>2025-04-28T16:25:11Z</time>
					</trkpt>
					<trkpt lat="43.502130" lon="4.993530">
						<ele>33</ele>
						<time>2025-04-28T16:25:20Z</time>
					</trkpt>
					<trkpt lat="43.502330" lon="4.993380">
						<ele>33</ele>
						<time>2025-04-28T16:25:24Z</time>
					</trkpt>
					<trkpt lat="43.502520" lon="4.993470">
						<ele>34</ele>
						<time>2025-04-28T16:25:27Z</time>
					</trkpt>
					<trkpt lat="43.502680" lon="4.993440">
						<ele>36</ele>
						<time>2025-04-28T16:25:30Z</time>
					</trkpt>
					<trkpt lat="43.502870" lon="4.993510">
						<ele>37</ele>
						<time>2025-04-28T16:25:34Z</time>
					</trkpt>
					<trkpt lat="43.503130" lon="4.993660">
						<ele>40</ele>
						<time>2025-04-28T16:25:39Z</time>
					</trkpt>
					<trkpt lat="43.503260" lon="4.993820">
						<ele>41</ele>
						<time>2025-04-28T16:25:42Z</time>
					</trkpt>
					<trkpt lat="43.503370" lon="4.994040">
						<ele>42</ele>
						<time>2025-04-28T16:25:45Z</time>
					</trkpt>
					<trkpt lat="43.504100" lon="4.995360">
						<ele>52</ele>
						<time>2025-04-28T16:26:07Z</time>
					</trkpt>
					<trkpt lat="43.504270" lon="4.995790">
						<ele>53</ele>
						<time>2025-04-28T16:26:13Z</time>
					</trkpt>
					<trkpt lat="43.504400" lon="4.996060">
						<ele>52</ele>
						<time>2025-04-28T16:26:17Z</time>
					</trkpt>
					<trkpt lat="43.504530" lon="4.996230">
						<ele>51</ele>
						<time>2025-04-28T16:26:20Z</time>
					</trkpt>
					<trkpt lat="43.504690" lon="4.996670">
						<ele>50</ele>
						<time>2025-04-28T16:26:27Z</time>
					</trkpt>
					<trkpt lat="43.504790" lon="4.996870">
						<ele>48</ele>
						<time>2025-04-28T16:26:30Z</time>
					</trkpt>
					<trkpt lat="43.504790" lon="4.997020">
						<ele>47</ele>
						<time>2025-04-28T16:26:32Z</time>
					</trkpt>
					<trkpt lat="43.504930" lon="4.997420">
						<ele>47</ele>
						<time>2025-04-28T16:26:37Z</time>
					</trkpt>
					<trkpt lat="43.505070" lon="4.997700">
						<ele>44</ele>
						<time>2025-04-28T16:26:42Z</time>
					</trkpt>
					<trkpt lat="43.505430" lon="4.997860">
						<ele>44</ele>
						<time>2025-04-28T16:26:48Z</time>
					</trkpt>
					<trkpt lat="43.505720" lon="4.997890">
						<ele>45</ele>
						<time>2025-04-28T16:26:54Z</time>
					</trkpt>
					<trkpt lat="43.506710" lon="4.997440">
						<ele>41</ele>
						<time>2025-04-28T16:27:12Z</time>
					</trkpt>
					<trkpt lat="43.507040" lon="4.997440">
						<ele>38</ele>
						<time>2025-04-28T16:27:18Z</time>
					</trkpt>
					<trkpt lat="43.507460" lon="4.997590">
						<ele>36</ele>
						<time>2025-04-28T16:27:26Z</time>
					</trkpt>
					<trkpt lat="43.507760" lon="4.997850">
						<ele>36</ele>
						<time>2025-04-28T16:27:32Z</time>
					</trkpt>
					<trkpt lat="43.508150" lon="4.998210">
						<ele>32</ele>
						<time>2025-04-28T16:27:40Z</time>
					</trkpt>
					<trkpt lat="43.508320" lon="4.998380">
						<ele>28</ele>
						<time>2025-04-28T16:27:44Z</time>
					</trkpt>
					<trkpt lat="43.508520" lon="4.998400">
						<ele>27</ele>
						<time>2025-04-28T16:27:48Z</time>
					</trkpt>
					<trkpt lat="43.508760" lon="4.998530">
						<ele>25</ele>
						<time>2025-04-28T16:27:52Z</time>
					</trkpt>
					<trkpt lat="43.509270" lon="4.998780">
						<ele>22</ele>
						<time>2025-04-28T16:28:02Z</time>
					</trkpt>
					<trkpt lat="43.509710" lon="4.999100">
						<ele>21</ele>
						<time>2025-04-28T16:28:11Z</time>
					</trkpt>
					<trkpt lat="43.510380" lon="4.999500">
						<ele>18</ele>
						<time>2025-04-28T16:28:24Z</time>
					</trkpt>
					<trkpt lat="43.510560" lon="4.999530">
						<ele>18</ele>
						<time>2025-04-28T16:28:27Z</time>
					</trkpt>
					<trkpt lat="43.511110" lon="4.999930">
						<ele>16</ele>
						<time>2025-04-28T16:28:38Z</time>
					</trkpt>
					<trkpt lat="43.511440" lon="5.000180">
						<ele>15</ele>
						<time>2025-04-28T16:28:45Z</time>
					</trkpt>
					<trkpt lat="43.511900" lon="5.000500">
						<ele>14</ele>
						<time>2025-04-28T16:28:54Z</time>
					</trkpt>
					<trkpt lat="43.512220" lon="5.000840">
						<ele>13</ele>
						<time>2025-04-28T16:29:01Z</time>
					</trkpt>
					<trkpt lat="43.512480" lon="5.001160">
						<ele>10</ele>
						<time>2025-04-28T16:29:07Z</time>
					</trkpt>
					<trkpt lat="43.512760" lon="5.001390">
						<ele>9</ele>
						<time>2025-04-28T16:29:13Z</time>
					</trkpt>
					<trkpt lat="43.513360" lon="5.001680">
						<ele>12</ele>
						<time>2025-04-28T16:29:24Z</time>
					</trkpt>
					<trkpt lat="43.513580" lon="5.001840">
						<ele>13</ele>
						<time>2025-04-28T16:29:29Z</time>
					</trkpt>
					<trkpt lat="43.513740" lon="5.002090">
						<ele>13</ele>
						<time>2025-04-28T16:29:33Z</time>
					</trkpt>
					<trkpt lat="43.513890" lon="5.002290">
						<ele>14</ele>
						<time>2025-04-28T16:29:37Z</time>
					</trkpt>
					<trkpt lat="43.514040" lon="5.002240">
						<ele>15</ele>
						<time>2025-04-28T16:29:40Z</time>
					</trkpt>
					<trkpt lat="43.514160" lon="5.002260">
						<ele>17</ele>
						<time>2025-04-28T16:29:42Z</time>
					</trkpt>
					<trkpt lat="43.514250" lon="5.002330">
						<ele>17</ele>
						<time>2025-04-28T16:29:44Z</time>
					</trkpt>
					<trkpt lat="43.514480" lon="5.002650">
						<ele>18</ele>
						<time>2025-04-28T16:29:49Z</time>
					</trkpt>
					<trkpt lat="43.515170" lon="5.003450">
						<ele>17</ele>
						<time>2025-04-28T16:30:06Z</time>
					</trkpt>
					<trkpt lat="43.515380" lon="5.003730">
						<ele>19</ele>
						<time>2025-04-28T16:30:11Z</time>
					</trkpt>
					<trkpt lat="43.515660" lon="5.004180">
						<ele>20</ele>
						<time>2025-04-28T16:30:18Z</time>
					</trkpt>
					<trkpt lat="43.515880" lon="5.004400">
						<ele>20</ele>
						<time>2025-04-28T16:30:23Z</time>
					</trkpt>
					<trkpt lat="43.516390" lon="5.004750">
						<ele>18</ele>
						<time>2025-04-28T16:30:33Z</time>
					</trkpt>
					<trkpt lat="43.516620" lon="5.004960">
						<ele>16</ele>
						<time>2025-04-28T16:30:38Z</time>
					</trkpt>
					<trkpt lat="43.516730" lon="5.005040">
						<ele>14</ele>
						<time>2025-04-28T16:30:40Z</time>
					</trkpt>
					<trkpt lat="43.517010" lon="5.005130">
						<ele>12</ele>
						<time>2025-04-28T16:30:46Z</time>
					</trkpt>
					<trkpt lat="43.517600" lon="5.005270">
						<ele>10</ele>
						<time>2025-04-28T16:30:56Z</time>
					</trkpt>
					<trkpt lat="43.517740" lon="5.005310">
						<ele>10</ele>
						<time>2025-04-28T16:30:59Z</time>
					</trkpt>
					<trkpt lat="43.517870" lon="5.005390">
						<ele>9</ele>
						<time>2025-04-28T16:31:01Z</time>
					</trkpt>
					<trkpt lat="43.517990" lon="5.005550">
						<ele>7</ele>
						<time>2025-04-28T16:31:04Z</time>
					</trkpt>
					<trkpt lat="43.518250" lon="5.005980">
						<ele>4</ele>
						<time>2025-04-28T16:31:11Z</time>
					</trkpt>
					<trkpt lat="43.519190" lon="5.007190">
						<ele>0</ele>
						<time>2025-04-28T16:31:34Z</time>
					</trkpt>
					<trkpt lat="43.519310" lon="5.007310">
						<ele>2</ele>
						<time>2025-04-28T16:31:37Z</time>
					</trkpt>
					<trkpt lat="43.519440" lon="5.007380">
						<ele>3</ele>
						<time>2025-04-28T16:31:39Z</time>
					</trkpt>
					<trkpt lat="43.519580" lon="5.007410">
						<ele>4</ele>
						<time>2025-04-28T16:31:42Z</time>
					</trkpt>
					<trkpt lat="43.520020" lon="5.007390">
						<ele>9</ele>
						<time>2025-04-28T16:31:50Z</time>
					</trkpt>
					<trkpt lat="43.520470" lon="5.007300">
						<ele>12</ele>
						<time>2025-04-28T16:31:58Z</time>
					</trkpt>
					<trkpt lat="43.520620" lon="5.007310">
						<ele>13</ele>
						<time>2025-04-28T16:32:01Z</time>
					</trkpt>
					<trkpt lat="43.521060" lon="5.007450">
						<ele>10</ele>
						<time>2025-04-28T16:32:09Z</time>
					</trkpt>
					<trkpt lat="43.521220" lon="5.007470">
						<ele>9</ele>
						<time>2025-04-28T16:32:11Z</time>
					</trkpt>
					<trkpt lat="43.521540" lon="5.007430">
						<ele>9</ele>
						<time>2025-04-28T16:32:17Z</time>
					</trkpt>
					<trkpt lat="43.522040" lon="5.007320">
						<ele>10</ele>
						<time>2025-04-28T16:32:26Z</time>
					</trkpt>
					<trkpt lat="43.522340" lon="5.007190">
						<ele>12</ele>
						<time>2025-04-28T16:32:32Z</time>
					</trkpt>
					<trkpt lat="43.522480" lon="5.007090">
						<ele>13</ele>
						<time>2025-04-28T16:32:35Z</time>
					</trkpt>
					<trkpt lat="43.522720" lon="5.006820">
						<ele>18</ele>
						<time>2025-04-28T16:32:40Z</time>
					</trkpt>
					<trkpt lat="43.523020" lon="5.006380">
						<ele>20</ele>
						<time>2025-04-28T16:32:48Z</time>
					</trkpt>
					<trkpt lat="43.523130" lon="5.006260">
						<ele>20</ele>
						<time>2025-04-28T16:32:50Z</time>
					</trkpt>
					<trkpt lat="43.523230" lon="5.006180">
						<ele>20</ele>
						<time>2025-04-28T16:32:52Z</time>
					</trkpt>
					<trkpt lat="43.523330" lon="5.006140">
						<ele>19</ele>
						<time>2025-04-28T16:32:54Z</time>
					</trkpt>
					<trkpt lat="43.523430" lon="5.006160">
						<ele>20</ele>
						<time>2025-04-28T16:32:56Z</time>
					</trkpt>
					<trkpt lat="43.523490" lon="5.006220">
						<ele>20</ele>
						<time>2025-04-28T16:32:57Z</time>
					</trkpt>
					<trkpt lat="43.523540" lon="5.006000">
						<ele>19</ele>
						<time>2025-04-28T16:33:00Z</time>
					</trkpt>
					<trkpt lat="43.523520" lon="5.005970">
						<ele>19</ele>
						<time>2025-04-28T16:33:01Z</time>
					</trkpt>
					<trkpt lat="43.523460" lon="5.005940">
						<ele>19</ele>
						<time>2025-04-28T16:33:02Z</time>
					</trkpt>
					<trkpt lat="43.523480" lon="5.005880">
						<ele>19</ele>
						<time>2025-04-28T16:33:03Z</time>
					</trkpt>
					<trkpt lat="43.523470" lon="5.005810">
						<ele>19</ele>
						<time>2025-04-28T16:33:04Z</time>
					</trkpt>
					<trkpt lat="43.523440" lon="5.005770">
						<ele>18</ele>
						<time>2025-04-28T16:33:05Z</time>
					</trkpt>
					<trkpt lat="43.523310" lon="5.005740">
						<ele>19</ele>
						<time>2025-04-28T16:33:07Z</time>
					</trkpt>
					<trkpt lat="43.522720" lon="5.005780">
						<ele>23</ele>
						<time>2025-04-28T16:33:17Z</time>
					</trkpt>
					<trkpt lat="43.522520" lon="5.005710">
						<ele>24</ele>
						<time>2025-04-28T16:33:21Z</time>
					</trkpt>
					<trkpt lat="43.522440" lon="5.005660">
						<ele>24</ele>
						<time>2025-04-28T16:33:23Z</time>
					</trkpt>
					<trkpt lat="43.522410" lon="5.005590">
						<ele>23</ele>
						<time>2025-04-28T16:33:24Z</time>
					</trkpt>
					<trkpt lat="43.522400" lon="5.005470">
						<ele>22</ele>
						<time>2025-04-28T16:33:25Z</time>
					</trkpt>
					<trkpt lat="43.522450" lon="5.005290">
						<ele>21</ele>
						<time>2025-04-28T16:33:28Z</time>
					</trkpt>
					<trkpt lat="43.522810" lon="5.004840">
						<ele>17</ele>
						<time>2025-04-28T16:33:36Z</time>
					</trkpt>
					<trkpt lat="43.523080" lon="5.004580">
						<ele>17</ele>
						<time>2025-04-28T16:33:42Z</time>
					</trkpt>
					<trkpt lat="43.523200" lon="5.004320">
						<ele>18</ele>
						<time>2025-04-28T16:33:46Z</time>
					</trkpt>
					<trkpt lat="43.523280" lon="5.003810">
						<ele>20</ele>
						<time>2025-04-28T16:33:53Z</time>
					</trkpt>
					<trkpt lat="43.523250" lon="5.003540">
						<ele>20</ele>
						<time>2025-04-28T16:33:57Z</time>
					</trkpt>
					<trkpt lat="43.523010" lon="5.002950">
						<ele>24</ele>
						<time>2025-04-28T16:34:05Z</time>
					</trkpt>
					<trkpt lat="43.522960" lon="5.002810">
						<ele>25</ele>
						<time>2025-04-28T16:34:07Z</time>
					</trkpt>
					<trkpt lat="43.522550" lon="5.002630">
						<ele>26</ele>
						<time>2025-04-28T16:34:15Z</time>
					</trkpt>
					<trkpt lat="43.522390" lon="5.002610">
						<ele>27</ele>
						<time>2025-04-28T16:34:18Z</time>
					</trkpt>
					<trkpt lat="43.522050" lon="5.002620">
						<ele>27</ele>
						<time>2025-04-28T16:34:24Z</time>
					</trkpt>
					<trkpt lat="43.521850" lon="5.002670">
						<ele>27</ele>
						<time>2025-04-28T16:34:27Z</time>
					</trkpt>
					<trkpt lat="43.521770" lon="5.002670">
						<ele>27</ele>
						<time>2025-04-28T16:34:29Z</time>
					</trkpt>
					<trkpt lat="43.521690" lon="5.002630">
						<ele>27</ele>
						<time>2025-04-28T16:34:30Z</time>
					</trkpt>
					<trkpt lat="43.521480" lon="5.002390">
						<ele>29</ele>
						<time>2025-04-28T16:34:35Z</time>
					</trkpt>
					<trkpt lat="43.521420" lon="5.002340">
						<ele>30</ele>
						<time>2025-04-28T16:34:36Z</time>
					</trkpt>
					<trkpt lat="43.521170" lon="5.002250">
						<ele>29</ele>
						<time>2025-04-28T16:34:41Z</time>
					</trkpt>
					<trkpt lat="43.521080" lon="5.002150">
						<ele>29</ele>
						<time>2025-04-28T16:34:43Z</time>
					</trkpt>
					<trkpt lat="43.520740" lon="5.001520">
						<ele>31</ele>
						<time>2025-04-28T16:34:53Z</time>
					</trkpt>
					<trkpt lat="43.520650" lon="5.001300">
						<ele>32</ele>
						<time>2025-04-28T16:34:57Z</time>
					</trkpt>
					<trkpt lat="43.520380" lon="5.000310">
						<ele>36</ele>
						<time>2025-04-28T16:35:10Z</time>
					</trkpt>
					<trkpt lat="43.520390" lon="5.000240">
						<ele>37</ele>
						<time>2025-04-28T16:35:11Z</time>
					</trkpt>
					<trkpt lat="43.520500" lon="4.999980">
						<ele>37</ele>
						<time>2025-04-28T16:35:15Z</time>
					</trkpt>
					<trkpt lat="43.520500" lon="4.999830">
						<ele>36</ele>
						<time>2025-04-28T16:35:17Z</time>
					</trkpt>
					<trkpt lat="43.520440" lon="4.999630">
						<ele>34</ele>
						<time>2025-04-28T16:35:20Z</time>
					</trkpt>
					<trkpt lat="43.520330" lon="4.999410">
						<ele>32</ele>
						<time>2025-04-28T16:35:23Z</time>
					</trkpt>
					<trkpt lat="43.520380" lon="4.999390">
						<ele>32</ele>
						<time>2025-04-28T16:35:24Z</time>
					</trkpt>
					<trkpt lat="43.520680" lon="4.999410">
						<ele>33</ele>
						<time>2025-04-28T16:35:29Z</time>
					</trkpt>
					<trkpt lat="43.520870" lon="4.999490">
						<ele>33</ele>
						<time>2025-04-28T16:35:33Z</time>
					</trkpt>
					<trkpt lat="43.521730" lon="4.999790">
						<ele>33</ele>
						<time>2025-04-28T16:35:49Z</time>
					</trkpt>
					<trkpt lat="43.522710" lon="4.999790">
						<ele>34</ele>
						<time>2025-04-28T16:36:06Z</time>
					</trkpt>
					<trkpt lat="43.522870" lon="4.999710">
						<ele>34</ele>
						<time>2025-04-28T16:36:09Z</time>
					</trkpt>
					<trkpt lat="43.523250" lon="4.999420">
						<ele>34</ele>
						<time>2025-04-28T16:36:17Z</time>
					</trkpt>
					<trkpt lat="43.523420" lon="4.999360">
						<ele>33</ele>
						<time>2025-04-28T16:36:20Z</time>
					</trkpt>
					<trkpt lat="43.523890" lon="4.999270">
						<ele>32</ele>
						<time>2025-04-28T16:36:28Z</time>
					</trkpt>
					<trkpt lat="43.524270" lon="4.999160">
						<ele>31</ele>
						<time>2025-04-28T16:36:35Z</time>
					</trkpt>
					<trkpt lat="43.524460" lon="4.999060">
						<ele>30</ele>
						<time>2025-04-28T16:36:39Z</time>
					</trkpt>
					<trkpt lat="43.525010" lon="4.998710">
						<ele>28</ele>
						<time>2025-04-28T16:36:50Z</time>
					</trkpt>
					<trkpt lat="43.526060" lon="4.998140">
						<ele>23</ele>
						<time>2025-04-28T16:37:10Z</time>
					</trkpt>
					<trkpt lat="43.526250" lon="4.998100">
						<ele>21</ele>
						<time>2025-04-28T16:37:13Z</time>
					</trkpt>
					<trkpt lat="43.526420" lon="4.998110">
						<ele>20</ele>
						<time>2025-04-28T16:37:16Z</time>
					</trkpt>
					<trkpt lat="43.527600" lon="4.998430">
						<ele>24</ele>
						<time>2025-04-28T16:37:38Z</time>
					</trkpt>
					<trkpt lat="43.528710" lon="4.999480">
						<ele>30</ele>
						<time>2025-04-28T16:38:02Z</time>
					</trkpt>
					<trkpt lat="43.529240" lon="4.999920">
						<ele>31</ele>
						<time>2025-04-28T16:38:13Z</time>
					</trkpt>
					<trkpt lat="43.529710" lon="5.000080">
						<ele>30</ele>
						<time>2025-04-28T16:38:21Z</time>
					</trkpt>
					<trkpt lat="43.530160" lon="5.000120">
						<ele>28</ele>
						<time>2025-04-28T16:38:29Z</time>
					</trkpt>
					<trkpt lat="43.530370" lon="5.000080">
						<ele>28</ele>
						<time>2025-04-28T16:38:33Z</time>
					</trkpt>
					<trkpt lat="43.530530" lon="4.999950">
						<ele>27</ele>
						<time>2025-04-28T16:38:36Z</time>
					</trkpt>
					<trkpt lat="43.531190" lon="4.999570">
						<ele>26</ele>
						<time>2025-04-28T16:38:49Z</time>
					</trkpt>
					<trkpt lat="43.531760" lon="4.999300">
						<ele>27</ele>
						<time>2025-04-28T16:39:00Z</time>
					</trkpt>
					<trkpt lat="43.531780" lon="4.999250">
						<ele>27</ele>
						<time>2025-04-28T16:39:01Z</time>
					</trkpt>
					<trkpt lat="43.531870" lon="4.999220">
						<ele>27</ele>
						<time>2025-04-28T16:39:02Z</time>
					</trkpt>
					<trkpt lat="43.532780" lon="4.998550">
						<ele>30</ele>
						<time>2025-04-28T16:39:21Z</time>
					</trkpt>
					<trkpt lat="43.533140" lon="4.998340">
						<ele>31</ele>
						<time>2025-04-28T16:39:28Z</time>
					</trkpt>
					<trkpt lat="43.533610" lon="4.998180">
						<ele>33</ele>
						<time>2025-04-28T16:39:36Z</time>
					</trkpt>
					<trkpt lat="43.535250" lon="4.997900">
						<ele>38</ele>
						<time>2025-04-28T16:40:06Z</time>
					</trkpt>
					<trkpt lat="43.536260" lon="4.997860">
						<ele>42</ele>
						<time>2025-04-28T16:40:24Z</time>
					</trkpt>
					<trkpt lat="43.537760" lon="4.997750">
						<ele>51</ele>
						<time>2025-04-28T16:40:50Z</time>
					</trkpt>
					<trkpt lat="43.538600" lon="4.997620">
						<ele>49</ele>
						<time>2025-04-28T16:41:05Z</time>
					</trkpt>
					<trkpt lat="43.539430" lon="4.997640">
						<ele>52</ele>
						<time>2025-04-28T16:41:20Z</time>
					</trkpt>
					<trkpt lat="43.539690" lon="4.997590">
						<ele>53</ele>
						<time>2025-04-28T16:41:25Z</time>
					</trkpt>
					<trkpt lat="43.540330" lon="4.997350">
						<ele>55</ele>
						<time>2025-04-28T16:41:37Z</time>
					</trkpt>
					<trkpt lat="43.541110" lon="4.997110">
						<ele>57</ele>
						<time>2025-04-28T16:41:51Z</time>
					</trkpt>
					<trkpt lat="43.541770" lon="4.996800">
						<ele>57</ele>
						<time>2025-04-28T16:42:03Z</time>
					</trkpt>
					<trkpt lat="43.542390" lon="4.996430">
						<ele>59</ele>
						<time>2025-04-28T16:42:15Z</time>
					</trkpt>
					<trkpt lat="43.542930" lon="4.996380">
						<ele>61</ele>
						<time>2025-04-28T16:42:25Z</time>
					</trkpt>
					<trkpt lat="43.543030" lon="4.996370">
						<ele>61</ele>
						<time>2025-04-28T16:42:27Z</time>
					</trkpt>
					<trkpt lat="43.543070" lon="4.996330">
						<ele>61</ele>
						<time>2025-04-28T16:42:27Z</time>
					</trkpt>
					<trkpt lat="43.543150" lon="4.996410">
						<ele>62</ele>
						<time>2025-04-28T16:42:29Z</time>
					</trkpt>
					<trkpt lat="43.543290" lon="4.996480">
						<ele>63</ele>
						<time>2025-04-28T16:42:32Z</time>
					</trkpt>
					<trkpt lat="43.543580" lon="4.996570">
						<ele>64</ele>
						<time>2025-04-28T16:42:37Z</time>
					</trkpt>
					<trkpt lat="43.543710" lon="4.996540">
						<ele>64</ele>
						<time>2025-04-28T16:42:40Z</time>
					</trkpt>
					<trkpt lat="43.544200" lon="4.996470">
						<ele>64</ele>
						<time>2025-04-28T16:42:48Z</time>
					</trkpt>
					<trkpt lat="43.544620" lon="4.996560">
						<ele>64</ele>
						<time>2025-04-28T16:42:56Z</time>
					</trkpt>
					<trkpt lat="43.545300" lon="4.996780">
						<ele>65</ele>
						<time>2025-04-28T16:43:08Z</time>
					</trkpt>
					<trkpt lat="43.545860" lon="4.997020">
						<ele>65</ele>
						<time>2025-04-28T16:43:19Z</time>
					</trkpt>
					<trkpt lat="43.546900" lon="4.997350">
						<ele>65</ele>
						<time>2025-04-28T16:43:38Z</time>
					</trkpt>
					<trkpt lat="43.547280" lon="4.997330">
						<ele>63</ele>
						<time>2025-04-28T16:43:44Z</time>
					</trkpt>
					<trkpt lat="43.548220" lon="4.997720">
						<ele>63</ele>
						<time>2025-04-28T16:44:02Z</time>
					</trkpt>
					<trkpt lat="43.549520" lon="4.997590">
						<ele>57</ele>
						<time>2025-04-28T16:44:25Z</time>
					</trkpt>
					<trkpt lat="43.551120" lon="4.997330">
						<ele>59</ele>
						<time>2025-04-28T16:44:54Z</time>
					</trkpt>
					<trkpt lat="43.551290" lon="4.997500">
						<ele>61</ele>
						<time>2025-04-28T16:44:58Z</time>
					</trkpt>
					<trkpt lat="43.551460" lon="4.998320">
						<ele>59</ele>
						<time>2025-04-28T16:45:09Z</time>
					</trkpt>
					<trkpt lat="43.551430" lon="4.998980">
						<ele>57</ele>
						<time>2025-04-28T16:45:17Z</time>
					</trkpt>
					<trkpt lat="43.552130" lon="4.999510">
						<ele>57</ele>
						<time>2025-04-28T16:45:31Z</time>
					</trkpt>
					<trkpt lat="43.553710" lon="5.001210">
						<ele>59</ele>
						<time>2025-04-28T16:46:07Z</time>
					</trkpt>
					<trkpt lat="43.554060" lon="5.001460">
						<ele>62</ele>
						<time>2025-04-28T16:46:14Z</time>
					</trkpt>
					<trkpt lat="43.554360" lon="5.001450">
						<ele>62</ele>
						<time>2025-04-28T16:46:19Z</time>
					</trkpt>
					<trkpt lat="43.555520" lon="5.002150">
						<ele>66</ele>
						<time>2025-04-28T16:46:42Z</time>
					</trkpt>
					<trkpt lat="43.556050" lon="5.002380">
						<ele>66</ele>
						<time>2025-04-28T16:46:52Z</time>
					</trkpt>
					<trkpt lat="43.556390" lon="5.002680">
						<ele>66</ele>
						<time>2025-04-28T16:46:59Z</time>
					</trkpt>
					<trkpt lat="43.557120" lon="5.002950">
						<ele>67</ele>
						<time>2025-04-28T16:47:12Z</time>
					</trkpt>
					<trkpt lat="43.557510" lon="5.003320">
						<ele>70</ele>
						<time>2025-04-28T16:47:21Z</time>
					</trkpt>
					<trkpt lat="43.558370" lon="5.003780">
						<ele>70</ele>
						<time>2025-04-28T16:47:37Z</time>
					</trkpt>
					<trkpt lat="43.558460" lon="5.004630">
						<ele>73</ele>
						<time>2025-04-28T16:47:48Z</time>
					</trkpt>
					<trkpt lat="43.558560" lon="5.005200">
						<ele>74</ele>
						<time>2025-04-28T16:47:56Z</time>
					</trkpt>
					<trkpt lat="43.558810" lon="5.006040">
						<ele>73</ele>
						<time>2025-04-28T16:48:07Z</time>
					</trkpt>
					<trkpt lat="43.558940" lon="5.007020">
						<ele>73</ele>
						<time>2025-04-28T16:48:20Z</time>
					</trkpt>
					<trkpt lat="43.558970" lon="5.007750">
						<ele>75</ele>
						<time>2025-04-28T16:48:30Z</time>
					</trkpt>
					<trkpt lat="43.559090" lon="5.008380">
						<ele>75</ele>
						<time>2025-04-28T16:48:38Z</time>
					</trkpt>
					<trkpt lat="43.559500" lon="5.009180">
						<ele>70</ele>
						<time>2025-04-28T16:48:51Z</time>
					</trkpt>
					<trkpt lat="43.559670" lon="5.009490">
						<ele>69</ele>
						<time>2025-04-28T16:48:56Z</time>
					</trkpt>
					<trkpt lat="43.559910" lon="5.009600">
						<ele>69</ele>
						<time>2025-04-28T16:49:00Z</time>
					</trkpt>
					<trkpt lat="43.560190" lon="5.010020">
						<ele>68</ele>
						<time>2025-04-28T16:49:08Z</time>
					</trkpt>
					<trkpt lat="43.560480" lon="5.010290">
						<ele>68</ele>
						<time>2025-04-28T16:49:14Z</time>
					</trkpt>
					<trkpt lat="43.560670" lon="5.010590">
						<ele>65</ele>
						<time>2025-04-28T16:49:19Z</time>
					</trkpt>
					<trkpt lat="43.561080" lon="5.011060">
						<ele>62</ele>
						<time>2025-04-28T16:49:28Z</time>
					</trkpt>
					<trkpt lat="43.561110" lon="5.011110">
						<ele>62</ele>
						<time>2025-04-28T16:49:29Z</time>
					</trkpt>
					<trkpt lat="43.561140" lon="5.011260">
						<ele>61</ele>
						<time>2025-04-28T16:49:31Z</time>
					</trkpt>
					<trkpt lat="43.561210" lon="5.011420">
						<ele>59</ele>
						<time>2025-04-28T16:49:34Z</time>
					</trkpt>
					<trkpt lat="43.561510" lon="5.011760">
						<ele>57</ele>
						<time>2025-04-28T16:49:41Z</time>
					</trkpt>
					<trkpt lat="43.561570" lon="5.011800">
						<ele>57</ele>
						<time>2025-04-28T16:49:42Z</time>
					</trkpt>
					<trkpt lat="43.561790" lon="5.011880">
						<ele>57</ele>
						<time>2025-04-28T16:49:46Z</time>
					</trkpt>
					<trkpt lat="43.563090" lon="5.012660">
						<ele>48</ele>
						<time>2025-04-28T16:50:11Z</time>
					</trkpt>
					<trkpt lat="43.563380" lon="5.012750">
						<ele>47</ele>
						<time>2025-04-28T16:50:16Z</time>
					</trkpt>
					<trkpt lat="43.564050" lon="5.012920">
						<ele>47</ele>
						<time>2025-04-28T16:50:29Z</time>
					</trkpt>
					<trkpt lat="43.564260" lon="5.013010">
						<ele>46</ele>
						<time>2025-04-28T16:50:32Z</time>
					</trkpt>
					<trkpt lat="43.564700" lon="5.013250">
						<ele>43</ele>
						<time>2025-04-28T16:50:41Z</time>
					</trkpt>
					<trkpt lat="43.564810" lon="5.013300">
						<ele>43</ele>
						<time>2025-04-28T16:50:43Z</time>
					</trkpt>
					<trkpt lat="43.565040" lon="5.013340">
						<ele>43</ele>
						<time>2025-04-28T16:50:47Z</time>
					</trkpt>
					<trkpt lat="43.565260" lon="5.013280">
						<ele>42</ele>
						<time>2025-04-28T16:50:51Z</time>
					</trkpt>
					<trkpt lat="43.565950" lon="5.012810">
						<ele>42</ele>
						<time>2025-04-28T16:51:05Z</time>
					</trkpt>
					<trkpt lat="43.566180" lon="5.012680">
						<ele>44</ele>
						<time>2025-04-28T16:51:09Z</time>
					</trkpt>
					<trkpt lat="43.567110" lon="5.012300">
						<ele>45</ele>
						<time>2025-04-28T16:51:26Z</time>
					</trkpt>
					<trkpt lat="43.567290" lon="5.012270">
						<ele>45</ele>
						<time>2025-04-28T16:51:30Z</time>
					</trkpt>
					<trkpt lat="43.567440" lon="5.012280">
						<ele>45</ele>
						<time>2025-04-28T16:51:32Z</time>
					</trkpt>
					<trkpt lat="43.567610" lon="5.012340">
						<ele>45</ele>
						<time>2025-04-28T16:51:35Z</time>
					</trkpt>
					<trkpt lat="43.567790" lon="5.012430">
						<ele>43</ele>
						<time>2025-04-28T16:51:39Z</time>
					</trkpt>
					<trkpt lat="43.568570" lon="5.012910">
						<ele>38</ele>
						<time>2025-04-28T16:51:54Z</time>
					</trkpt>
					<trkpt lat="43.569430" lon="5.013610">
						<ele>34</ele>
						<time>2025-04-28T16:52:12Z</time>
					</trkpt>
					<trkpt lat="43.569800" lon="5.013960">
						<ele>34</ele>
						<time>2025-04-28T16:52:20Z</time>
					</trkpt>
					<trkpt lat="43.570180" lon="5.014300">
						<ele>33</ele>
						<time>2025-04-28T16:52:28Z</time>
					</trkpt>
					<trkpt lat="43.570220" lon="5.014350">
						<ele>33</ele>
						<time>2025-04-28T16:52:29Z</time>
					</trkpt>
					<trkpt lat="43.570250" lon="5.014410">
						<ele>33</ele>
						<time>2025-04-28T16:52:30Z</time>
					</trkpt>
					<trkpt lat="43.570240" lon="5.014540">
						<ele>32</ele>
						<time>2025-04-28T16:52:31Z</time>
					</trkpt>
					<trkpt lat="43.570110" lon="5.015120">
						<ele>29</ele>
						<time>2025-04-28T16:52:39Z</time>
					</trkpt>
					<trkpt lat="43.570070" lon="5.015230">
						<ele>29</ele>
						<time>2025-04-28T16:52:41Z</time>
					</trkpt>
					<trkpt lat="43.569920" lon="5.015520">
						<ele>27</ele>
						<time>2025-04-28T16:52:45Z</time>
					</trkpt>
					<trkpt lat="43.569880" lon="5.015640">
						<ele>26</ele>
						<time>2025-04-28T16:52:47Z</time>
					</trkpt>
					<trkpt lat="43.569880" lon="5.015630">
						<ele>26</ele>
						<time>2025-04-28T16:52:47Z</time>
					</trkpt>
					<trkpt lat="43.570170" lon="5.015730">
						<ele>26</ele>
						<time>2025-04-28T16:52:53Z</time>
					</trkpt>
					<trkpt lat="43.570980" lon="5.013940">
						<ele>34</ele>
						<time>2025-04-28T16:53:20Z</time>
					</trkpt>
					<trkpt lat="43.571400" lon="5.013400">
						<ele>37</ele>
						<time>2025-04-28T16:53:30Z</time>
					</trkpt>
					<trkpt lat="43.571960" lon="5.012980">
						<ele>41</ele>
						<time>2025-04-28T16:53:41Z</time>
					</trkpt>
					<trkpt lat="43.572660" lon="5.012730">
						<ele>43</ele>
						<time>2025-04-28T16:53:54Z</time>
					</trkpt>
					<trkpt lat="43.573760" lon="5.012760">
						<ele>46</ele>
						<time>2025-04-28T16:54:14Z</time>
					</trkpt>
					<trkpt lat="43.574770" lon="5.012860">
						<ele>45</ele>
						<time>2025-04-28T16:54:32Z</time>
					</trkpt>
					<trkpt lat="43.575180" lon="5.012740">
						<ele>46</ele>
						<time>2025-04-28T16:54:39Z</time>
					</trkpt>
					<trkpt lat="43.576010" lon="5.012040">
						<ele>47</ele>
						<time>2025-04-28T16:54:57Z</time>
					</trkpt>
					<trkpt lat="43.576770" lon="5.011570">
						<ele>47</ele>
						<time>2025-04-28T16:55:11Z</time>
					</trkpt>
					<trkpt lat="43.577560" lon="5.011100">
						<ele>49</ele>
						<time>2025-04-28T16:55:27Z</time>
					</trkpt>
					<trkpt lat="43.577830" lon="5.010730">
						<ele>51</ele>
						<time>2025-04-28T16:55:33Z</time>
					</trkpt>
					<trkpt lat="43.578170" lon="5.009890">
						<ele>56</ele>
						<time>2025-04-28T16:55:46Z</time>
					</trkpt>
					<trkpt lat="43.578330" lon="5.009620">
						<ele>55</ele>
						<time>2025-04-28T16:55:50Z</time>
					</trkpt>
					<trkpt lat="43.578370" lon="5.008980">
						<ele>56</ele>
						<time>2025-04-28T16:55:59Z</time>
					</trkpt>
					<trkpt lat="43.578630" lon="5.009120">
						<ele>55</ele>
						<time>2025-04-28T16:56:04Z</time>
					</trkpt>
					<trkpt lat="43.579020" lon="5.009470">
						<ele>54</ele>
						<time>2025-04-28T16:56:12Z</time>
					</trkpt>
					<trkpt lat="43.579190" lon="5.009750">
						<ele>53</ele>
						<time>2025-04-28T16:56:17Z</time>
					</trkpt>
					<trkpt lat="43.579230" lon="5.009860">
						<ele>52</ele>
						<time>2025-04-28T16:56:18Z</time>
					</trkpt>
					<trkpt lat="43.579350" lon="5.009790">
						<ele>52</ele>
						<time>2025-04-28T16:56:20Z</time>
					</trkpt>
					<trkpt lat="43.579650" lon="5.008830">
						<ele>53</ele>
						<time>2025-04-28T16:56:34Z</time>
					</trkpt>
					<trkpt lat="43.579740" lon="5.008490">
						<ele>54</ele>
						<time>2025-04-28T16:56:39Z</time>
					</trkpt>
					<trkpt lat="43.579950" lon="5.008570">
						<ele>54</ele>
						<time>2025-04-28T16:56:42Z</time>
					</trkpt>
					<trkpt lat="43.579860" lon="5.008960">
						<ele>53</ele>
						<time>2025-04-28T16:56:48Z</time>
					</trkpt>
					<trkpt lat="43.579840" lon="5.009550">
						<ele>52</ele>
						<time>2025-04-28T16:56:55Z</time>
					</trkpt>
					<trkpt lat="43.579500" lon="5.010520">
						<ele>50</ele>
						<time>2025-04-28T16:57:09Z</time>
					</trkpt>
					<trkpt lat="43.579380" lon="5.011170">
						<ele>49</ele>
						<time>2025-04-28T16:57:18Z</time>
					</trkpt>
					<trkpt lat="43.579120" lon="5.012060">
						<ele>48</ele>
						<time>2025-04-28T16:57:30Z</time>
					</trkpt>
					<trkpt lat="43.579240" lon="5.012470">
						<ele>48</ele>
						<time>2025-04-28T16:57:36Z</time>
					</trkpt>
					<trkpt lat="43.579070" lon="5.012710">
						<ele>48</ele>
						<time>2025-04-28T16:57:40Z</time>
					</trkpt>
					<trkpt lat="43.579340" lon="5.013250">
						<ele>50</ele>
						<time>2025-04-28T16:57:49Z</time>
					</trkpt>
					<trkpt lat="43.579050" lon="5.014340">
						<ele>48</ele>
						<time>2025-04-28T16:58:04Z</time>
					</trkpt>
					<trkpt lat="43.579090" lon="5.014670">
						<ele>49</ele>
						<time>2025-04-28T16:58:08Z</time>
					</trkpt>
					<trkpt lat="43.579660" lon="5.014410">
						<ele>53</ele>
						<time>2025-04-28T16:58:19Z</time>
					</trkpt>
					<trkpt lat="43.580640" lon="5.013680">
						<ele>54</ele>
						<time>2025-04-28T16:58:39Z</time>
					</trkpt>
					<trkpt lat="43.581140" lon="5.013720">
						<ele>55</ele>
						<time>2025-04-28T16:58:47Z</time>
					</trkpt>
					<trkpt lat="43.581730" lon="5.013800">
						<ele>56</ele>
						<time>2025-04-28T16:58:58Z</time>
					</trkpt>
					<trkpt lat="43.581830" lon="5.013800">
						<ele>56</ele>
						<time>2025-04-28T16:59:00Z</time>
					</trkpt>
					<trkpt lat="43.581920" lon="5.013920">
						<ele>56</ele>
						<time>2025-04-28T16:59:02Z</time>
					</trkpt>
					<trkpt lat="43.581950" lon="5.014080">
						<ele>57</ele>
						<time>2025-04-28T16:59:04Z</time>
					</trkpt>
					<trkpt lat="43.581900" lon="5.014100">
						<ele>57</ele>
						<time>2025-04-28T16:59:05Z</time>
					</trkpt>
					<trkpt lat="43.581870" lon="5.014150">
						<ele>57</ele>
						<time>2025-04-28T16:59:06Z</time>
					</trkpt>
					<trkpt lat="43.581810" lon="5.014290">
						<ele>58</ele>
						<time>2025-04-28T16:59:08Z</time>
					</trkpt>
					<trkpt lat="43.581790" lon="5.014370">
						<ele>58</ele>
						<time>2025-04-28T16:59:09Z</time>
					</trkpt>
					<trkpt lat="43.581810" lon="5.014610">
						<ele>58</ele>
						<time>2025-04-28T16:59:12Z</time>
					</trkpt>
					<trkpt lat="43.582330" lon="5.016110">
						<ele>58</ele>
						<time>2025-04-28T16:59:34Z</time>
					</trkpt>
					<trkpt lat="43.582350" lon="5.016320">
						<ele>58</ele>
						<time>2025-04-28T16:59:36Z</time>
					</trkpt>
					<trkpt lat="43.582320" lon="5.016550">
						<ele>58</ele>
						<time>2025-04-28T16:59:39Z</time>
					</trkpt>
					<trkpt lat="43.582260" lon="5.016730">
						<ele>59</ele>
						<time>2025-04-28T16:59:42Z</time>
					</trkpt>
					<trkpt lat="43.582190" lon="5.016970">
						<ele>59</ele>
						<time>2025-04-28T16:59:45Z</time>
					</trkpt>
					<trkpt lat="43.582180" lon="5.017080">
						<ele>60</ele>
						<time>2025-04-28T16:59:47Z</time>
					</trkpt>
					<trkpt lat="43.582180" lon="5.017180">
						<ele>60</ele>
						<time>2025-04-28T16:59:48Z</time>
					</trkpt>
					<trkpt lat="43.582230" lon="5.017350">
						<ele>60</ele>
						<time>2025-04-28T16:59:50Z</time>
					</trkpt>
					<trkpt lat="43.582280" lon="5.017470">
						<ele>60</ele>
						<time>2025-04-28T16:59:52Z</time>
					</trkpt>
					<trkpt lat="43.582700" lon="5.017980">
						<ele>62</ele>
						<time>2025-04-28T17:00:02Z</time>
					</trkpt>
					<trkpt lat="43.582750" lon="5.018130">
						<ele>62</ele>
						<time>2025-04-28T17:00:04Z</time>
					</trkpt>
					<trkpt lat="43.582770" lon="5.018310">
						<ele>63</ele>
						<time>2025-04-28T17:00:07Z</time>
					</trkpt>
					<trkpt lat="43.582590" lon="5.019920">
						<ele>65</ele>
						<time>2025-04-28T17:00:28Z</time>
					</trkpt>
					<trkpt lat="43.582410" lon="5.020580">
						<ele>65</ele>
						<time>2025-04-28T17:00:37Z</time>
					</trkpt>
					<trkpt lat="43.582380" lon="5.020620">
						<ele>65</ele>
						<time>2025-04-28T17:00:37Z</time>
					</trkpt>
					<trkpt lat="43.582220" lon="5.020770">
						<ele>65</ele>
						<time>2025-04-28T17:00:41Z</time>
					</trkpt>
					<trkpt lat="43.582340" lon="5.020780">
						<ele>65</ele>
						<time>2025-04-28T17:00:43Z</time>
					</trkpt>
					<trkpt lat="43.582370" lon="5.020780">
						<ele>65</ele>
						<time>2025-04-28T17:00:44Z</time>
					</trkpt>
					<trkpt lat="43.582390" lon="5.020820">
						<ele>66</ele>
						<time>2025-04-28T17:00:44Z</time>
					</trkpt>
					<trkpt lat="43.582430" lon="5.020830">
						<ele>66</ele>
						<time>2025-04-28T17:00:45Z</time>
					</trkpt>
					<trkpt lat="43.582770" lon="5.020730">
						<ele>66</ele>
						<time>2025-04-28T17:00:51Z</time>
					</trkpt>
					<trkpt lat="43.583850" lon="5.020660">
						<ele>64</ele>
						<time>2025-04-28T17:01:10Z</time>
					</trkpt>
					<trkpt lat="43.583970" lon="5.021170">
						<ele>65</ele>
						<time>2025-04-28T17:01:17Z</time>
					</trkpt>
					<trkpt lat="43.584030" lon="5.021230">
						<ele>65</ele>
						<time>2025-04-28T17:01:19Z</time>
					</trkpt>
					<trkpt lat="43.584360" lon="5.021320">
						<ele>65</ele>
						<time>2025-04-28T17:01:24Z</time>
					</trkpt>
					<trkpt lat="43.584440" lon="5.021400">
						<ele>65</ele>
						<time>2025-04-28T17:01:26Z</time>
					</trkpt>
					<trkpt lat="43.584660" lon="5.021650">
						<ele>66</ele>
						<time>2025-04-28T17:01:31Z</time>
					</trkpt>
					<trkpt lat="43.584740" lon="5.021690">
						<ele>66</ele>
						<time>2025-04-28T17:01:33Z</time>
					</trkpt>
					<trkpt lat="43.584890" lon="5.021690">
						<ele>66</ele>
						<time>2025-04-28T17:01:36Z</time>
					</trkpt>
					<trkpt lat="43.585480" lon="5.021500">
						<ele>66</ele>
						<time>2025-04-28T17:01:46Z</time>
					</trkpt>
					<trkpt lat="43.585740" lon="5.021510">
						<ele>66</ele>
						<time>2025-04-28T17:01:51Z</time>
					</trkpt>
					<trkpt lat="43.585920" lon="5.021550">
						<ele>66</ele>
						<time>2025-04-28T17:01:54Z</time>
					</trkpt>
					<trkpt lat="43.586010" lon="5.021540">
						<ele>66</ele>
						<time>2025-04-28T17:01:56Z</time>
					</trkpt>
					<trkpt lat="43.586190" lon="5.021470">
						<ele>65</ele>
						<time>2025-04-28T17:01:59Z</time>
					</trkpt>
					<trkpt lat="43.586650" lon="5.021420">
						<ele>65</ele>
						<time>2025-04-28T17:02:07Z</time>
					</trkpt>
					<trkpt lat="43.586850" lon="5.021510">
						<ele>65</ele>
						<time>2025-04-28T17:02:11Z</time>
					</trkpt>
					<trkpt lat="43.587080" lon="5.021690">
						<ele>65</ele>
						<time>2025-04-28T17:02:16Z</time>
					</trkpt>
					<trkpt lat="43.587300" lon="5.021910">
						<ele>65</ele>
						<time>2025-04-28T17:02:21Z</time>
					</trkpt>
					<trkpt lat="43.587430" lon="5.022110">
						<ele>66</ele>
						<time>2025-04-28T17:02:24Z</time>
					</trkpt>
					<trkpt lat="43.587520" lon="5.022290">
						<ele>67</ele>
						<time>2025-04-28T17:02:27Z</time>
					</trkpt>
					<trkpt lat="43.587720" lon="5.022450">
						<ele>67</ele>
						<time>2025-04-28T17:02:31Z</time>
					</trkpt>
					<trkpt lat="43.587970" lon="5.022600">
						<ele>67</ele>
						<time>2025-04-28T17:02:36Z</time>
					</trkpt>
					<trkpt lat="43.588280" lon="5.022970">
						<ele>67</ele>
						<time>2025-04-28T17:02:43Z</time>
					</trkpt>
					<trkpt lat="43.588540" lon="5.023210">
						<ele>67</ele>
						<time>2025-04-28T17:02:49Z</time>
					</trkpt>
					<trkpt lat="43.588690" lon="5.023310">
						<ele>67</ele>
						<time>2025-04-28T17:02:52Z</time>
					</trkpt>
					<trkpt lat="43.588860" lon="5.023220">
						<ele>67</ele>
						<time>2025-04-28T17:02:55Z</time>
					</trkpt>
					<trkpt lat="43.588870" lon="5.023250">
						<ele>67</ele>
						<time>2025-04-28T17:02:55Z</time>
					</trkpt>
					<trkpt lat="43.588970" lon="5.023880">
						<ele>69</ele>
						<time>2025-04-28T17:03:04Z</time>
					</trkpt>
					<trkpt lat="43.589190" lon="5.024320">
						<ele>68</ele>
						<time>2025-04-28T17:03:11Z</time>
					</trkpt>
					<trkpt lat="43.589650" lon="5.024280">
						<ele>68</ele>
						<time>2025-04-28T17:03:19Z</time>
					</trkpt>
					<trkpt lat="43.590260" lon="5.025140">
						<ele>62</ele>
						<time>2025-04-28T17:03:34Z</time>
					</trkpt>
					<trkpt lat="43.591720" lon="5.025480">
						<ele>55</ele>
						<time>2025-04-28T17:04:01Z</time>
					</trkpt>
					<trkpt lat="43.592270" lon="5.026450">
						<ele>58</ele>
						<time>2025-04-28T17:04:16Z</time>
					</trkpt>
					<trkpt lat="43.592670" lon="5.026410">
						<ele>59</ele>
						<time>2025-04-28T17:04:24Z</time>
					</trkpt>
					<trkpt lat="43.592900" lon="5.025920">
						<ele>56</ele>
						<time>2025-04-28T17:04:31Z</time>
					</trkpt>
					<trkpt lat="43.593230" lon="5.025700">
						<ele>56</ele>
						<time>2025-04-28T17:04:38Z</time>
					</trkpt>
					<trkpt lat="43.593730" lon="5.025970">
						<ele>57</ele>
						<time>2025-04-28T17:04:47Z</time>
					</trkpt>
					<trkpt lat="43.594050" lon="5.026010">
						<ele>58</ele>
						<time>2025-04-28T17:04:53Z</time>
					</trkpt>
					<trkpt lat="43.594490" lon="5.026100">
						<ele>60</ele>
						<time>2025-04-28T17:05:01Z</time>
					</trkpt>
					<trkpt lat="43.594770" lon="5.026000">
						<ele>60</ele>
						<time>2025-04-28T17:05:06Z</time>
					</trkpt>
					<trkpt lat="43.594750" lon="5.026240">
						<ele>61</ele>
						<time>2025-04-28T17:05:09Z</time>
					</trkpt>
					<trkpt lat="43.594630" lon="5.026980">
						<ele>64</ele>
						<time>2025-04-28T17:05:19Z</time>
					</trkpt>
					<trkpt lat="43.594770" lon="5.027460">
						<ele>65</ele>
						<time>2025-04-28T17:05:26Z</time>
					</trkpt>
					<trkpt lat="43.595320" lon="5.027540">
						<ele>64</ele>
						<time>2025-04-28T17:05:35Z</time>
					</trkpt>
					<trkpt lat="43.595470" lon="5.027730">
						<ele>64</ele>
						<time>2025-04-28T17:05:39Z</time>
					</trkpt>
					<trkpt lat="43.595480" lon="5.028790">
						<ele>64</ele>
						<time>2025-04-28T17:05:53Z</time>
					</trkpt>
					<trkpt lat="43.595700" lon="5.029250">
						<ele>65</ele>
						<time>2025-04-28T17:06:00Z</time>
					</trkpt>
					<trkpt lat="43.595580" lon="5.029720">
						<ele>65</ele>
						<time>2025-04-28T17:06:06Z</time>
					</trkpt>
					<trkpt lat="43.595310" lon="5.030150">
						<ele>66</ele>
						<time>2025-04-28T17:06:13Z</time>
					</trkpt>
					<trkpt lat="43.595110" lon="5.031170">
						<ele>67</ele>
						<time>2025-04-28T17:06:27Z</time>
					</trkpt>
					<trkpt lat="43.595120" lon="5.033490">
						<ele>66</ele>
						<time>2025-04-28T17:06:57Z</time>
					</trkpt>
					<trkpt lat="43.595210" lon="5.033880">
						<ele>66</ele>
						<time>2025-04-28T17:07:02Z</time>
					</trkpt>
					<trkpt lat="43.595040" lon="5.034560">
						<ele>67</ele>
						<time>2025-04-28T17:07:12Z</time>
					</trkpt>
					<trkpt lat="43.594880" lon="5.034880">
						<ele>68</ele>
						<time>2025-04-28T17:07:17Z</time>
					</trkpt>
					<trkpt lat="43.594490" lon="5.035150">
						<ele>68</ele>
						<time>2025-04-28T17:07:24Z</time>
					</trkpt>
					<trkpt lat="43.593830" lon="5.035450">
						<ele>68</ele>
						<time>2025-04-28T17:07:37Z</time>
					</trkpt>
					<trkpt lat="43.593600" lon="5.035910">
						<ele>68</ele>
						<time>2025-04-28T17:07:44Z</time>
					</trkpt>
					<trkpt lat="43.593440" lon="5.036130">
						<ele>68</ele>
						<time>2025-04-28T17:07:48Z</time>
					</trkpt>
					<trkpt lat="43.593580" lon="5.036500">
						<ele>68</ele>
						<time>2025-04-28T17:07:53Z</time>
					</trkpt>
					<trkpt lat="43.593670" lon="5.036810">
						<ele>68</ele>
						<time>2025-04-28T17:07:58Z</time>
					</trkpt>
					<trkpt lat="43.593640" lon="5.037260">
						<ele>68</ele>
						<time>2025-04-28T17:08:03Z</time>
					</trkpt>
					<trkpt lat="43.593740" lon="5.037540">
						<ele>69</ele>
						<time>2025-04-28T17:08:07Z</time>
					</trkpt>
					<trkpt lat="43.593970" lon="5.037910">
						<ele>69</ele>
						<time>2025-04-28T17:08:14Z</time>
					</trkpt>
					<trkpt lat="43.593940" lon="5.038250">
						<ele>69</ele>
						<time>2025-04-28T17:08:18Z</time>
					</trkpt>
					<trkpt lat="43.593480" lon="5.038780">
						<ele>70</ele>
						<time>2025-04-28T17:08:29Z</time>
					</trkpt>
					<trkpt lat="43.593370" lon="5.039070">
						<ele>71</ele>
						<time>2025-04-28T17:08:33Z</time>
					</trkpt>
					<trkpt lat="43.593050" lon="5.039260">
						<ele>71</ele>
						<time>2025-04-28T17:08:39Z</time>
					</trkpt>
					<trkpt lat="43.592940" lon="5.039520">
						<ele>71</ele>
						<time>2025-04-28T17:08:43Z</time>
					</trkpt>
					<trkpt lat="43.592840" lon="5.039730">
						<ele>71</ele>
						<time>2025-04-28T17:08:46Z</time>
					</trkpt>
					<trkpt lat="43.592670" lon="5.040260">
						<ele>70</ele>
						<time>2025-04-28T17:08:54Z</time>
					</trkpt>
					<trkpt lat="43.592550" lon="5.040610">
						<ele>69</ele>
						<time>2025-04-28T17:08:59Z</time>
					</trkpt>
					<trkpt lat="43.592380" lon="5.041020">
						<ele>68</ele>
						<time>2025-04-28T17:09:05Z</time>
					</trkpt>
					<trkpt lat="43.592270" lon="5.041310">
						<ele>68</ele>
						<time>2025-04-28T17:09:09Z</time>
					</trkpt>
					<trkpt lat="43.592010" lon="5.041490">
						<ele>66</ele>
						<time>2025-04-28T17:09:14Z</time>
					</trkpt>
					<trkpt lat="43.591980" lon="5.041730">
						<ele>66</ele>
						<time>2025-04-28T17:09:17Z</time>
					</trkpt>
					<trkpt lat="43.592030" lon="5.041820">
						<ele>67</ele>
						<time>2025-04-28T17:09:19Z</time>
					</trkpt>
					<trkpt lat="43.592020" lon="5.041940">
						<ele>67</ele>
						<time>2025-04-28T17:09:20Z</time>
					</trkpt>
					<trkpt lat="43.591930" lon="5.042990">
						<ele>69</ele>
						<time>2025-04-28T17:09:34Z</time>
					</trkpt>
					<trkpt lat="43.591920" lon="5.043070">
						<ele>69</ele>
						<time>2025-04-28T17:09:35Z</time>
					</trkpt>
					<trkpt lat="43.591840" lon="5.043140">
						<ele>69</ele>
						<time>2025-04-28T17:09:37Z</time>
					</trkpt>
					<trkpt lat="43.591230" lon="5.043390">
						<ele>67</ele>
						<time>2025-04-28T17:09:48Z</time>
					</trkpt>
					<trkpt lat="43.591110" lon="5.043500">
						<ele>67</ele>
						<time>2025-04-28T17:09:51Z</time>
					</trkpt>
					<trkpt lat="43.590930" lon="5.043560">
						<ele>66</ele>
						<time>2025-04-28T17:09:54Z</time>
					</trkpt>
					<trkpt lat="43.590580" lon="5.043910">
						<ele>66</ele>
						<time>2025-04-28T17:10:02Z</time>
					</trkpt>
					<trkpt lat="43.590460" lon="5.044120">
						<ele>68</ele>
						<time>2025-04-28T17:10:05Z</time>
					</trkpt>
					<trkpt lat="43.590350" lon="5.044290">
						<ele>67</ele>
						<time>2025-04-28T17:10:08Z</time>
					</trkpt>
					<trkpt lat="43.589870" lon="5.044370">
						<ele>68</ele>
						<time>2025-04-28T17:10:17Z</time>
					</trkpt>
					<trkpt lat="43.589510" lon="5.044470">
						<ele>69</ele>
						<time>2025-04-28T17:10:23Z</time>
					</trkpt>
					<trkpt lat="43.589250" lon="5.044610">
						<ele>70</ele>
						<time>2025-04-28T17:10:28Z</time>
					</trkpt>
					<trkpt lat="43.588800" lon="5.045160">
						<ele>71</ele>
						<time>2025-04-28T17:10:39Z</time>
					</trkpt>
					<trkpt lat="43.588760" lon="5.045340">
						<ele>71</ele>
						<time>2025-04-28T17:10:41Z</time>
					</trkpt>
					<trkpt lat="43.588710" lon="5.045770">
						<ele>72</ele>
						<time>2025-04-28T17:10:47Z</time>
					</trkpt>
					<trkpt lat="43.588640" lon="5.046030">
						<ele>72</ele>
						<time>2025-04-28T17:10:50Z</time>
					</trkpt>
					<trkpt lat="43.588560" lon="5.046100">
						<ele>73</ele>
						<time>2025-04-28T17:10:52Z</time>
					</trkpt>
					<trkpt lat="43.588360" lon="5.046150">
						<ele>75</ele>
						<time>2025-04-28T17:10:56Z</time>
					</trkpt>
					<trkpt lat="43.588240" lon="5.046140">
						<ele>75</ele>
						<time>2025-04-28T17:10:58Z</time>
					</trkpt>
					<trkpt lat="43.588020" lon="5.046210">
						<ele>75</ele>
						<time>2025-04-28T17:11:02Z</time>
					</trkpt>
					<trkpt lat="43.587950" lon="5.046300">
						<ele>75</ele>
						<time>2025-04-28T17:11:04Z</time>
					</trkpt>
					<trkpt lat="43.587840" lon="5.046650">
						<ele>75</ele>
						<time>2025-04-28T17:11:09Z</time>
					</trkpt>
					<trkpt lat="43.587710" lon="5.046880">
						<ele>73</ele>
						<time>2025-04-28T17:11:12Z</time>
					</trkpt>
					<trkpt lat="43.587500" lon="5.046950">
						<ele>74</ele>
						<time>2025-04-28T17:11:16Z</time>
					</trkpt>
					<trkpt lat="43.587320" lon="5.046890">
						<ele>75</ele>
						<time>2025-04-28T17:11:19Z</time>
					</trkpt>
					<trkpt lat="43.587070" lon="5.046850">
						<ele>77</ele>
						<time>2025-04-28T17:11:24Z</time>
					</trkpt>
					<trkpt lat="43.586920" lon="5.046840">
						<ele>77</ele>
						<time>2025-04-28T17:11:27Z</time>
					</trkpt>
					<trkpt lat="43.586770" lon="5.046770">
						<ele>79</ele>
						<time>2025-04-28T17:11:29Z</time>
					</trkpt>
					<trkpt lat="43.586740" lon="5.046890">
						<ele>78</ele>
						<time>2025-04-28T17:11:31Z</time>
					</trkpt>
					<trkpt lat="43.586580" lon="5.047010">
						<ele>78</ele>
						<time>2025-04-28T17:11:34Z</time>
					</trkpt>
					<trkpt lat="43.586610" lon="5.047190">
						<ele>76</ele>
						<time>2025-04-28T17:11:37Z</time>
					</trkpt>
					<trkpt lat="43.586610" lon="5.047340">
						<ele>75</ele>
						<time>2025-04-28T17:11:39Z</time>
					</trkpt>
					<trkpt lat="43.586500" lon="5.047540">
						<ele>74</ele>
						<time>2025-04-28T17:11:42Z</time>
					</trkpt>
					<trkpt lat="43.586330" lon="5.047650">
						<ele>73</ele>
						<time>2025-04-28T17:11:45Z</time>
					</trkpt>
					<trkpt lat="43.585320" lon="5.047950">
						<ele>73</ele>
						<time>2025-04-28T17:12:04Z</time>
					</trkpt>
					<trkpt lat="43.584560" lon="5.048240">
						<ele>71</ele>
						<time>2025-04-28T17:12:18Z</time>
					</trkpt>
					<trkpt lat="43.584260" lon="5.048370">
						<ele>69</ele>
						<time>2025-04-28T17:12:23Z</time>
					</trkpt>
					<trkpt lat="43.584080" lon="5.048560">
						<ele>66</ele>
						<time>2025-04-28T17:12:27Z</time>
					</trkpt>
					<trkpt lat="43.584000" lon="5.048710">
						<ele>64</ele>
						<time>2025-04-28T17:12:30Z</time>
					</trkpt>
					<trkpt lat="43.583940" lon="5.048890">
						<ele>61</ele>
						<time>2025-04-28T17:12:32Z</time>
					</trkpt>
					<trkpt lat="43.583920" lon="5.049140">
						<ele>57</ele>
						<time>2025-04-28T17:12:35Z</time>
					</trkpt>
					<trkpt lat="43.583960" lon="5.049420">
						<ele>54</ele>
						<time>2025-04-28T17:12:39Z</time>
					</trkpt>
					<trkpt lat="43.584040" lon="5.049570">
						<ele>53</ele>
						<time>2025-04-28T17:12:41Z</time>
					</trkpt>
					<trkpt lat="43.584140" lon="5.049670">
						<ele>52</ele>
						<time>2025-04-28T17:12:44Z</time>
					</trkpt>
					<trkpt lat="43.584300" lon="5.049740">
						<ele>51</ele>
						<time>2025-04-28T17:12:47Z</time>
					</trkpt>
					<trkpt lat="43.584520" lon="5.049770">
						<ele>51</ele>
						<time>2025-04-28T17:12:51Z</time>
					</trkpt>
					<trkpt lat="43.585920" lon="5.049810">
						<ele>46</ele>
						<time>2025-04-28T17:13:16Z</time>
					</trkpt>
					<trkpt lat="43.586110" lon="5.049880">
						<ele>44</ele>
						<time>2025-04-28T17:13:19Z</time>
					</trkpt>
					<trkpt lat="43.586240" lon="5.049990">
						<ele>43</ele>
						<time>2025-04-28T17:13:22Z</time>
					</trkpt>
					<trkpt lat="43.586370" lon="5.050140">
						<ele>41</ele>
						<time>2025-04-28T17:13:25Z</time>
					</trkpt>
					<trkpt lat="43.586550" lon="5.050510">
						<ele>40</ele>
						<time>2025-04-28T17:13:30Z</time>
					</trkpt>
					<trkpt lat="43.586720" lon="5.050850">
						<ele>40</ele>
						<time>2025-04-28T17:13:36Z</time>
					</trkpt>
					<trkpt lat="43.586980" lon="5.051450">
						<ele>43</ele>
						<time>2025-04-28T17:13:45Z</time>
					</trkpt>
					<trkpt lat="43.586950" lon="5.051440">
						<ele>43</ele>
						<time>2025-04-28T17:13:45Z</time>
					</trkpt>
					<trkpt lat="43.586600" lon="5.051320">
						<ele>42</ele>
						<time>2025-04-28T17:13:52Z</time>
					</trkpt>
					<trkpt lat="43.586390" lon="5.051360">
						<ele>43</ele>
						<time>2025-04-28T17:13:56Z</time>
					</trkpt>
					<trkpt lat="43.586330" lon="5.051430">
						<ele>43</ele>
						<time>2025-04-28T17:13:57Z</time>
					</trkpt>
					<trkpt lat="43.586260" lon="5.051570">
						<ele>43</ele>
						<time>2025-04-28T17:13:59Z</time>
					</trkpt>
					<trkpt lat="43.586150" lon="5.051980">
						<ele>45</ele>
						<time>2025-04-28T17:14:05Z</time>
					</trkpt>
					<trkpt lat="43.585990" lon="5.052400">
						<ele>48</ele>
						<time>2025-04-28T17:14:11Z</time>
					</trkpt>
					<trkpt lat="43.585710" lon="5.052820">
						<ele>48</ele>
						<time>2025-04-28T17:14:18Z</time>
					</trkpt>
					<trkpt lat="43.585560" lon="5.052980">
						<ele>49</ele>
						<time>2025-04-28T17:14:22Z</time>
					</trkpt>
					<trkpt lat="43.585400" lon="5.053130">
						<ele>49</ele>
						<time>2025-04-28T17:14:25Z</time>
					</trkpt>
					<trkpt lat="43.585020" lon="5.053240">
						<ele>50</ele>
						<time>2025-04-28T17:14:32Z</time>
					</trkpt>
					<trkpt lat="43.584590" lon="5.053270">
						<ele>50</ele>
						<time>2025-04-28T17:14:40Z</time>
					</trkpt>
					<trkpt lat="43.584390" lon="5.053330">
						<ele>51</ele>
						<time>2025-04-28T17:14:43Z</time>
					</trkpt>
					<trkpt lat="43.584220" lon="5.053420">
						<ele>51</ele>
						<time>2025-04-28T17:14:47Z</time>
					</trkpt>
					<trkpt lat="43.583930" lon="5.053720">
						<ele>52</ele>
						<time>2025-04-28T17:14:53Z</time>
					</trkpt>
					<trkpt lat="43.583550" lon="5.053980">
						<ele>53</ele>
						<time>2025-04-28T17:15:01Z</time>
					</trkpt>
					<trkpt lat="43.583130" lon="5.054170">
						<ele>54</ele>
						<time>2025-04-28T17:15:08Z</time>
					</trkpt>
					<trkpt lat="43.581950" lon="5.054470">
						<ele>57</ele>
						<time>2025-04-28T17:15:30Z</time>
					</trkpt>
					<trkpt lat="43.581040" lon="5.054770">
						<ele>58</ele>
						<time>2025-04-28T17:15:46Z</time>
					</trkpt>
					<trkpt lat="43.580790" lon="5.054920">
						<ele>59</ele>
						<time>2025-04-28T17:15:51Z</time>
					</trkpt>
					<trkpt lat="43.580540" lon="5.055170">
						<ele>58</ele>
						<time>2025-04-28T17:15:57Z</time>
					</trkpt>
					<trkpt lat="43.579340" lon="5.056710">
						<ele>65</ele>
						<time>2025-04-28T17:16:26Z</time>
					</trkpt>
					<trkpt lat="43.579320" lon="5.056740">
						<ele>65</ele>
						<time>2025-04-28T17:16:26Z</time>
					</trkpt>
					<trkpt lat="43.579110" lon="5.056920">
						<ele>65</ele>
						<time>2025-04-28T17:16:31Z</time>
					</trkpt>
					<trkpt lat="43.578810" lon="5.057140">
						<ele>64</ele>
						<time>2025-04-28T17:16:37Z</time>
					</trkpt>
					<trkpt lat="43.578700" lon="5.057270">
						<ele>64</ele>
						<time>2025-04-28T17:16:39Z</time>
					</trkpt>
					<trkpt lat="43.578550" lon="5.057480">
						<ele>64</ele>
						<time>2025-04-28T17:16:43Z</time>
					</trkpt>
					<trkpt lat="43.578400" lon="5.057570">
						<ele>64</ele>
						<time>2025-04-28T17:16:46Z</time>
					</trkpt>
					<trkpt lat="43.578300" lon="5.057730">
						<ele>65</ele>
						<time>2025-04-28T17:16:49Z</time>
					</trkpt>
					<trkpt lat="43.578200" lon="5.057890">
						<ele>66</ele>
						<time>2025-04-28T17:16:52Z</time>
					</trkpt>
					<trkpt lat="43.578100" lon="5.057990">
						<ele>67</ele>
						<time>2025-04-28T17:16:54Z</time>
					</trkpt>
					<trkpt lat="43.578010" lon="5.058190">
						<ele>69</ele>
						<time>2025-04-28T17:16:57Z</time>
					</trkpt>
					<trkpt lat="43.577730" lon="5.058380">
						<ele>70</ele>
						<time>2025-04-28T17:17:02Z</time>
					</trkpt>
					<trkpt lat="43.577480" lon="5.058540">
						<ele>70</ele>
						<time>2025-04-28T17:17:07Z</time>
					</trkpt>
					<trkpt lat="43.577400" lon="5.058870">
						<ele>72</ele>
						<time>2025-04-28T17:17:12Z</time>
					</trkpt>
					<trkpt lat="43.577410" lon="5.059000">
						<ele>73</ele>
						<time>2025-04-28T17:17:13Z</time>
					</trkpt>
					<trkpt lat="43.576940" lon="5.059330">
						<ele>73</ele>
						<time>2025-04-28T17:17:23Z</time>
					</trkpt>
					<trkpt lat="43.576450" lon="5.059710">
						<ele>73</ele>
						<time>2025-04-28T17:17:33Z</time>
					</trkpt>
					<trkpt lat="43.576140" lon="5.059930">
						<ele>73</ele>
						<time>2025-04-28T17:17:39Z</time>
					</trkpt>
					<trkpt lat="43.575580" lon="5.060350">
						<ele>74</ele>
						<time>2025-04-28T17:17:50Z</time>
					</trkpt>
					<trkpt lat="43.575280" lon="5.060590">
						<ele>74</ele>
						<time>2025-04-28T17:17:57Z</time>
					</trkpt>
					<trkpt lat="43.575060" lon="5.061330">
						<ele>78</ele>
						<time>2025-04-28T17:18:07Z</time>
					</trkpt>
					<trkpt lat="43.575080" lon="5.061520">
						<ele>80</ele>
						<time>2025-04-28T17:18:09Z</time>
					</trkpt>
					<trkpt lat="43.575020" lon="5.061740">
						<ele>81</ele>
						<time>2025-04-28T17:18:12Z</time>
					</trkpt>
					<trkpt lat="43.574850" lon="5.061920">
						<ele>81</ele>
						<time>2025-04-28T17:18:16Z</time>
					</trkpt>
					<trkpt lat="43.574610" lon="5.062140">
						<ele>81</ele>
						<time>2025-04-28T17:18:21Z</time>
					</trkpt>
					<trkpt lat="43.574510" lon="5.062150">
						<ele>80</ele>
						<time>2025-04-28T17:18:23Z</time>
					</trkpt>
					<trkpt lat="43.574220" lon="5.062330">
						<ele>80</ele>
						<time>2025-04-28T17:18:29Z</time>
					</trkpt>
					<trkpt lat="43.574010" lon="5.062450">
						<ele>80</ele>
						<time>2025-04-28T17:18:33Z</time>
					</trkpt>
					<trkpt lat="43.573790" lon="5.062510">
						<ele>80</ele>
						<time>2025-04-28T17:18:37Z</time>
					</trkpt>
					<trkpt lat="43.573420" lon="5.062710">
						<ele>80</ele>
						<time>2025-04-28T17:18:44Z</time>
					</trkpt>
					<trkpt lat="43.573250" lon="5.063080">
						<ele>83</ele>
						<time>2025-04-28T17:18:49Z</time>
					</trkpt>
					<trkpt lat="43.573060" lon="5.063430">
						<ele>85</ele>
						<time>2025-04-28T17:18:55Z</time>
					</trkpt>
					<trkpt lat="43.572880" lon="5.063650">
						<ele>86</ele>
						<time>2025-04-28T17:18:59Z</time>
					</trkpt>
					<trkpt lat="43.572670" lon="5.063820">
						<ele>87</ele>
						<time>2025-04-28T17:19:04Z</time>
					</trkpt>
					<trkpt lat="43.572420" lon="5.064030">
						<ele>89</ele>
						<time>2025-04-28T17:19:09Z</time>
					</trkpt>
					<trkpt lat="43.572300" lon="5.064160">
						<ele>90</ele>
						<time>2025-04-28T17:19:12Z</time>
					</trkpt>
					<trkpt lat="43.572200" lon="5.064090">
						<ele>89</ele>
						<time>2025-04-28T17:19:14Z</time>
					</trkpt>
					<trkpt lat="43.572130" lon="5.063980">
						<ele>87</ele>
						<time>2025-04-28T17:19:16Z</time>
					</trkpt>
					<trkpt lat="43.571840" lon="5.064240">
						<ele>89</ele>
						<time>2025-04-28T17:19:22Z</time>
					</trkpt>
					<trkpt lat="43.571640" lon="5.064510">
						<ele>91</ele>
						<time>2025-04-28T17:19:27Z</time>
					</trkpt>
					<trkpt lat="43.571550" lon="5.064770">
						<ele>94</ele>
						<time>2025-04-28T17:19:30Z</time>
					</trkpt>
					<trkpt lat="43.571500" lon="5.064950">
						<ele>96</ele>
						<time>2025-04-28T17:19:33Z</time>
					</trkpt>
					<trkpt lat="43.571320" lon="5.065650">
						<ele>99</ele>
						<time>2025-04-28T17:19:42Z</time>
					</trkpt>
					<trkpt lat="43.571280" lon="5.065760">
						<ele>99</ele>
						<time>2025-04-28T17:19:44Z</time>
					</trkpt>
					<trkpt lat="43.571200" lon="5.065860">
						<ele>100</ele>
						<time>2025-04-28T17:19:46Z</time>
					</trkpt>
					<trkpt lat="43.571070" lon="5.065960">
						<ele>100</ele>
						<time>2025-04-28T17:19:49Z</time>
					</trkpt>
					<trkpt lat="43.570860" lon="5.066040">
						<ele>100</ele>
						<time>2025-04-28T17:19:52Z</time>
					</trkpt>
					<trkpt lat="43.570820" lon="5.066070">
						<ele>100</ele>
						<time>2025-04-28T17:19:53Z</time>
					</trkpt>
					<trkpt lat="43.570760" lon="5.066080">
						<ele>99</ele>
						<time>2025-04-28T17:19:54Z</time>
					</trkpt>
					<trkpt lat="43.570640" lon="5.066160">
						<ele>98</ele>
						<time>2025-04-28T17:19:57Z</time>
					</trkpt>
					<trkpt lat="43.570420" lon="5.066260">
						<ele>96</ele>
						<time>2025-04-28T17:20:01Z</time>
					</trkpt>
					<trkpt lat="43.570340" lon="5.066270">
						<ele>95</ele>
						<time>2025-04-28T17:20:02Z</time>
					</trkpt>
					<trkpt lat="43.570230" lon="5.066330">
						<ele>94</ele>
						<time>2025-04-28T17:20:04Z</time>
					</trkpt>
					<trkpt lat="43.570020" lon="5.066780">
						<ele>93</ele>
						<time>2025-04-28T17:20:11Z</time>
					</trkpt>
					<trkpt lat="43.569920" lon="5.067000">
						<ele>93</ele>
						<time>2025-04-28T17:20:15Z</time>
					</trkpt>
					<trkpt lat="43.569800" lon="5.067290">
						<ele>94</ele>
						<time>2025-04-28T17:20:19Z</time>
					</trkpt>
					<trkpt lat="43.569610" lon="5.067660">
						<ele>95</ele>
						<time>2025-04-28T17:20:25Z</time>
					</trkpt>
					<trkpt lat="43.569580" lon="5.067730">
						<ele>95</ele>
						<time>2025-04-28T17:20:26Z</time>
					</trkpt>
					<trkpt lat="43.569520" lon="5.067760">
						<ele>95</ele>
						<time>2025-04-28T17:20:27Z</time>
					</trkpt>
					<trkpt lat="43.569390" lon="5.068020">
						<ele>95</ele>
						<time>2025-04-28T17:20:31Z</time>
					</trkpt>
					<trkpt lat="43.569310" lon="5.068230">
						<ele>96</ele>
						<time>2025-04-28T17:20:34Z</time>
					</trkpt>
					<trkpt lat="43.569280" lon="5.068470">
						<ele>97</ele>
						<time>2025-04-28T17:20:37Z</time>
					</trkpt>
					<trkpt lat="43.569290" lon="5.068550">
						<ele>97</ele>
						<time>2025-04-28T17:20:38Z</time>
					</trkpt>
					<trkpt lat="43.569370" lon="5.068590">
						<ele>98</ele>
						<time>2025-04-28T17:20:40Z</time>
					</trkpt>
					<trkpt lat="43.569310" lon="5.068720">
						<ele>98</ele>
						<time>2025-04-28T17:20:42Z</time>
					</trkpt>
					<trkpt lat="43.569260" lon="5.068860">
						<ele>98</ele>
						<time>2025-04-28T17:20:44Z</time>
					</trkpt>
					<trkpt lat="43.569130" lon="5.069000">
						<ele>98</ele>
						<time>2025-04-28T17:20:47Z</time>
					</trkpt>
					<trkpt lat="43.569170" lon="5.069060">
						<ele>99</ele>
						<time>2025-04-28T17:20:48Z</time>
					</trkpt>
					<trkpt lat="43.569280" lon="5.069020">
						<ele>99</ele>
						<time>2025-04-28T17:20:50Z</time>
					</trkpt>
					<trkpt lat="43.569450" lon="5.069090">
						<ele>100</ele>
						<time>2025-04-28T17:20:53Z</time>
					</trkpt>
					<trkpt lat="43.569690" lon="5.069120">
						<ele>101</ele>
						<time>2025-04-28T17:20:57Z</time>
					</trkpt>
					<trkpt lat="43.569930" lon="5.069130">
						<ele>102</ele>
						<time>2025-04-28T17:21:01Z</time>
					</trkpt>
					<trkpt lat="43.570270" lon="5.069170">
						<ele>101</ele>
						<time>2025-04-28T17:21:08Z</time>
					</trkpt>
					<trkpt lat="43.571010" lon="5.069230">
						<ele>100</ele>
						<time>2025-04-28T17:21:21Z</time>
					</trkpt>
					<trkpt lat="43.571270" lon="5.069270">
						<ele>99</ele>
						<time>2025-04-28T17:21:25Z</time>
					</trkpt>
					<trkpt lat="43.571700" lon="5.069330">
						<ele>99</ele>
						<time>2025-04-28T17:21:33Z</time>
					</trkpt>
					<trkpt lat="43.572170" lon="5.069430">
						<ele>96</ele>
						<time>2025-04-28T17:21:42Z</time>
					</trkpt>
					<trkpt lat="43.572300" lon="5.069420">
						<ele>96</ele>
						<time>2025-04-28T17:21:44Z</time>
					</trkpt>
					<trkpt lat="43.572520" lon="5.069330">
						<ele>96</ele>
						<time>2025-04-28T17:21:48Z</time>
					</trkpt>
					<trkpt lat="43.573100" lon="5.069000">
						<ele>100</ele>
						<time>2025-04-28T17:21:59Z</time>
					</trkpt>
					<trkpt lat="43.573840" lon="5.068750">
						<ele>101</ele>
						<time>2025-04-28T17:22:13Z</time>
					</trkpt>
					<trkpt lat="43.574830" lon="5.067830">
						<ele>101</ele>
						<time>2025-04-28T17:22:34Z</time>
					</trkpt>
					<trkpt lat="43.575010" lon="5.067740">
						<ele>101</ele>
						<time>2025-04-28T17:22:37Z</time>
					</trkpt>
					<trkpt lat="43.575220" lon="5.067700">
						<ele>101</ele>
						<time>2025-04-28T17:22:41Z</time>
					</trkpt>
					<trkpt lat="43.575370" lon="5.067700">
						<ele>100</ele>
						<time>2025-04-28T17:22:44Z</time>
					</trkpt>
					<trkpt lat="43.575620" lon="5.067720">
						<ele>99</ele>
						<time>2025-04-28T17:22:48Z</time>
					</trkpt>
					<trkpt lat="43.576190" lon="5.067590">
						<ele>98</ele>
						<time>2025-04-28T17:22:59Z</time>
					</trkpt>
					<trkpt lat="43.576430" lon="5.067360">
						<ele>99</ele>
						<time>2025-04-28T17:23:04Z</time>
					</trkpt>
					<trkpt lat="43.576670" lon="5.067340">
						<ele>99</ele>
						<time>2025-04-28T17:23:08Z</time>
					</trkpt>
					<trkpt lat="43.577020" lon="5.067370">
						<ele>96</ele>
						<time>2025-04-28T17:23:14Z</time>
					</trkpt>
					<trkpt lat="43.577260" lon="5.067400">
						<ele>94</ele>
						<time>2025-04-28T17:23:19Z</time>
					</trkpt>
					<trkpt lat="43.577630" lon="5.067350">
						<ele>92</ele>
						<time>2025-04-28T17:23:25Z</time>
					</trkpt>
					<trkpt lat="43.578310" lon="5.067450">
						<ele>90</ele>
						<time>2025-04-28T17:23:37Z</time>
					</trkpt>
					<trkpt lat="43.578960" lon="5.067280">
						<ele>89</ele>
						<time>2025-04-28T17:23:49Z</time>
					</trkpt>
					<trkpt lat="43.579180" lon="5.067220">
						<ele>88</ele>
						<time>2025-04-28T17:23:53Z</time>
					</trkpt>
					<trkpt lat="43.579410" lon="5.067360">
						<ele>86</ele>
						<time>2025-04-28T17:23:58Z</time>
					</trkpt>
					<trkpt lat="43.579550" lon="5.067560">
						<ele>83</ele>
						<time>2025-04-28T17:24:01Z</time>
					</trkpt>
					<trkpt lat="43.579570" lon="5.067950">
						<ele>80</ele>
						<time>2025-04-28T17:24:06Z</time>
					</trkpt>
					<trkpt lat="43.579580" lon="5.068210">
						<ele>77</ele>
						<time>2025-04-28T17:24:10Z</time>
					</trkpt>
					<trkpt lat="43.579620" lon="5.068420">
						<ele>76</ele>
						<time>2025-04-28T17:24:12Z</time>
					</trkpt>
					<trkpt lat="43.579780" lon="5.069120">
						<ele>72</ele>
						<time>2025-04-28T17:24:22Z</time>
					</trkpt>
					<trkpt lat="43.579940" lon="5.069770">
						<ele>73</ele>
						<time>2025-04-28T17:24:31Z</time>
					</trkpt>
					<trkpt lat="43.580000" lon="5.070150">
						<ele>74</ele>
						<time>2025-04-28T17:24:36Z</time>
					</trkpt>
					<trkpt lat="43.579980" lon="5.070210">
						<ele>74</ele>
						<time>2025-04-28T17:24:36Z</time>
					</trkpt>
					<trkpt lat="43.579930" lon="5.070290">
						<ele>74</ele>
						<time>2025-04-28T17:24:38Z</time>
					</trkpt>
					<trkpt lat="43.579930" lon="5.070460">
						<ele>75</ele>
						<time>2025-04-28T17:24:40Z</time>
					</trkpt>
					<trkpt lat="43.579910" lon="5.071060">
						<ele>77</ele>
						<time>2025-04-28T17:24:48Z</time>
					</trkpt>
					<trkpt lat="43.579870" lon="5.071590">
						<ele>78</ele>
						<time>2025-04-28T17:24:55Z</time>
					</trkpt>
					<trkpt lat="43.579720" lon="5.071640">
						<ele>78</ele>
						<time>2025-04-28T17:24:57Z</time>
					</trkpt>
					<trkpt lat="43.579320" lon="5.071720">
						<ele>77</ele>
						<time>2025-04-28T17:25:05Z</time>
					</trkpt>
					<trkpt lat="43.579160" lon="5.071860">
						<ele>76</ele>
						<time>2025-04-28T17:25:08Z</time>
					</trkpt>
					<trkpt lat="43.579100" lon="5.071980">
						<ele>76</ele>
						<time>2025-04-28T17:25:10Z</time>
					</trkpt>
					<trkpt lat="43.579100" lon="5.072090">
						<ele>76</ele>
						<time>2025-04-28T17:25:11Z</time>
					</trkpt>
					<trkpt lat="43.579150" lon="5.072330">
						<ele>75</ele>
						<time>2025-04-28T17:25:14Z</time>
					</trkpt>
					<trkpt lat="43.579160" lon="5.072440">
						<ele>74</ele>
						<time>2025-04-28T17:25:16Z</time>
					</trkpt>
					<trkpt lat="43.579160" lon="5.072560">
						<ele>74</ele>
						<time>2025-04-28T17:25:17Z</time>
					</trkpt>
					<trkpt lat="43.578980" lon="5.073390">
						<ele>69</ele>
						<time>2025-04-28T17:25:29Z</time>
					</trkpt>
					<trkpt lat="43.578610" lon="5.073910">
						<ele>67</ele>
						<time>2025-04-28T17:25:38Z</time>
					</trkpt>
					<trkpt lat="43.577990" lon="5.074120">
						<ele>66</ele>
						<time>2025-04-28T17:25:49Z</time>
					</trkpt>
					<trkpt lat="43.577850" lon="5.074250">
						<ele>65</ele>
						<time>2025-04-28T17:25:52Z</time>
					</trkpt>
					<trkpt lat="43.577580" lon="5.074550">
						<ele>65</ele>
						<time>2025-04-28T17:25:59Z</time>
					</trkpt>
					<trkpt lat="43.577340" lon="5.074910">
						<ele>65</ele>
						<time>2025-04-28T17:26:05Z</time>
					</trkpt>
					<trkpt lat="43.577080" lon="5.075140">
						<ele>64</ele>
						<time>2025-04-28T17:26:10Z</time>
					</trkpt>
					<trkpt lat="43.576980" lon="5.075300">
						<ele>63</ele>
						<time>2025-04-28T17:26:13Z</time>
					</trkpt>
					<trkpt lat="43.576690" lon="5.075660">
						<ele>61</ele>
						<time>2025-04-28T17:26:20Z</time>
					</trkpt>
					<trkpt lat="43.576210" lon="5.075870">
						<ele>61</ele>
						<time>2025-04-28T17:26:29Z</time>
					</trkpt>
					<trkpt lat="43.576080" lon="5.075990">
						<ele>60</ele>
						<time>2025-04-28T17:26:32Z</time>
					</trkpt>
					<trkpt lat="43.576000" lon="5.076120">
						<ele>59</ele>
						<time>2025-04-28T17:26:34Z</time>
					</trkpt>
					<trkpt lat="43.575910" lon="5.076210">
						<ele>59</ele>
						<time>2025-04-28T17:26:36Z</time>
					</trkpt>
					<trkpt lat="43.575370" lon="5.076210">
						<ele>60</ele>
						<time>2025-04-28T17:26:46Z</time>
					</trkpt>
					<trkpt lat="43.575240" lon="5.076260">
						<ele>60</ele>
						<time>2025-04-28T17:26:48Z</time>
					</trkpt>
					<trkpt lat="43.575180" lon="5.076330">
						<ele>60</ele>
						<time>2025-04-28T17:26:49Z</time>
					</trkpt>
					<trkpt lat="43.574830" lon="5.076070">
						<ele>62</ele>
						<time>2025-04-28T17:26:56Z</time>
					</trkpt>
					<trkpt lat="43.574320" lon="5.075880">
						<ele>64</ele>
						<time>2025-04-28T17:27:06Z</time>
					</trkpt>
					<trkpt lat="43.573650" lon="5.075690">
						<ele>63</ele>
						<time>2025-04-28T17:27:18Z</time>
					</trkpt>
					<trkpt lat="43.573200" lon="5.075590">
						<ele>63</ele>
						<time>2025-04-28T17:27:26Z</time>
					</trkpt>
					<trkpt lat="43.572690" lon="5.075460">
						<ele>63</ele>
						<time>2025-04-28T17:27:35Z</time>
					</trkpt>
					<trkpt lat="43.572200" lon="5.075310">
						<ele>63</ele>
						<time>2025-04-28T17:27:44Z</time>
					</trkpt>
					<trkpt lat="43.572180" lon="5.075390">
						<ele>63</ele>
						<time>2025-04-28T17:27:45Z</time>
					</trkpt>
					<trkpt lat="43.572170" lon="5.075470">
						<ele>64</ele>
						<time>2025-04-28T17:27:46Z</time>
					</trkpt>
					<trkpt lat="43.572090" lon="5.075520">
						<ele>64</ele>
						<time>2025-04-28T17:27:48Z</time>
					</trkpt>
					<trkpt lat="43.571690" lon="5.075600">
						<ele>63</ele>
						<time>2025-04-28T17:27:55Z</time>
					</trkpt>
					<trkpt lat="43.571230" lon="5.075590">
						<ele>61</ele>
						<time>2025-04-28T17:28:03Z</time>
					</trkpt>
					<trkpt lat="43.570530" lon="5.075620">
						<ele>58</ele>
						<time>2025-04-28T17:28:16Z</time>
					</trkpt>
					<trkpt lat="43.570320" lon="5.075530">
						<ele>58</ele>
						<time>2025-04-28T17:28:20Z</time>
					</trkpt>
					<trkpt lat="43.570060" lon="5.075310">
						<ele>60</ele>
						<time>2025-04-28T17:28:25Z</time>
					</trkpt>
					<trkpt lat="43.569760" lon="5.075090">
						<ele>61</ele>
						<time>2025-04-28T17:28:31Z</time>
					</trkpt>
					<trkpt lat="43.569160" lon="5.074790">
						<ele>60</ele>
						<time>2025-04-28T17:28:43Z</time>
					</trkpt>
					<trkpt lat="43.568740" lon="5.074660">
						<ele>61</ele>
						<time>2025-04-28T17:28:50Z</time>
					</trkpt>
					<trkpt lat="43.568340" lon="5.074640">
						<ele>61</ele>
						<time>2025-04-28T17:28:57Z</time>
					</trkpt>
					<trkpt lat="43.568000" lon="5.074780">
						<ele>57</ele>
						<time>2025-04-28T17:29:04Z</time>
					</trkpt>
					<trkpt lat="43.567700" lon="5.074840">
						<ele>56</ele>
						<time>2025-04-28T17:29:09Z</time>
					</trkpt>
					<trkpt lat="43.566470" lon="5.074690">
						<ele>57</ele>
						<time>2025-04-28T17:29:31Z</time>
					</trkpt>
					<trkpt lat="43.566150" lon="5.074570">
						<ele>57</ele>
						<time>2025-04-28T17:29:37Z</time>
					</trkpt>
					<trkpt lat="43.565280" lon="5.074030">
						<ele>57</ele>
						<time>2025-04-28T17:29:54Z</time>
					</trkpt>
					<trkpt lat="43.565110" lon="5.073970">
						<ele>57</ele>
						<time>2025-04-28T17:29:57Z</time>
					</trkpt>
					<trkpt lat="43.564870" lon="5.073950">
						<ele>56</ele>
						<time>2025-04-28T17:30:01Z</time>
					</trkpt>
					<trkpt lat="43.564560" lon="5.073850">
						<ele>58</ele>
						<time>2025-04-28T17:30:07Z</time>
					</trkpt>
					<trkpt lat="43.564100" lon="5.073740">
						<ele>60</ele>
						<time>2025-04-28T17:30:15Z</time>
					</trkpt>
					<trkpt lat="43.563870" lon="5.073740">
						<ele>61</ele>
						<time>2025-04-28T17:30:19Z</time>
					</trkpt>
					<trkpt lat="43.563610" lon="5.073790">
						<ele>61</ele>
						<time>2025-04-28T17:30:24Z</time>
					</trkpt>
					<trkpt lat="43.563300" lon="5.073910">
						<ele>59</ele>
						<time>2025-04-28T17:30:30Z</time>
					</trkpt>
					<trkpt lat="43.562430" lon="5.074650">
						<ele>58</ele>
						<time>2025-04-28T17:30:48Z</time>
					</trkpt>
					<trkpt lat="43.562090" lon="5.074920">
						<ele>56</ele>
						<time>2025-04-28T17:30:55Z</time>
					</trkpt>
					<trkpt lat="43.562060" lon="5.074980">
						<ele>55</ele>
						<time>2025-04-28T17:30:56Z</time>
					</trkpt>
					<trkpt lat="43.562160" lon="5.075680">
						<ele>52</ele>
						<time>2025-04-28T17:31:05Z</time>
					</trkpt>
					<trkpt lat="43.562190" lon="5.076140">
						<ele>51</ele>
						<time>2025-04-28T17:31:11Z</time>
					</trkpt>
					<trkpt lat="43.562190" lon="5.076230">
						<ele>51</ele>
						<time>2025-04-28T17:31:12Z</time>
					</trkpt>
					<trkpt lat="43.562140" lon="5.076250">
						<ele>52</ele>
						<time>2025-04-28T17:31:13Z</time>
					</trkpt>
					<trkpt lat="43.561960" lon="5.076210">
						<ele>52</ele>
						<time>2025-04-28T17:31:16Z</time>
					</trkpt>
					<trkpt lat="43.560950" lon="5.075920">
						<ele>54</ele>
						<time>2025-04-28T17:31:35Z</time>
					</trkpt>
					<trkpt lat="43.560280" lon="5.075630">
						<ele>55</ele>
						<time>2025-04-28T17:31:47Z</time>
					</trkpt>
					<trkpt lat="43.559920" lon="5.075450">
						<ele>57</ele>
						<time>2025-04-28T17:31:54Z</time>
					</trkpt>
					<trkpt lat="43.559790" lon="5.075470">
						<ele>57</ele>
						<time>2025-04-28T17:31:56Z</time>
					</trkpt>
					<trkpt lat="43.559690" lon="5.075440">
						<ele>57</ele>
						<time>2025-04-28T17:31:58Z</time>
					</trkpt>
					<trkpt lat="43.559270" lon="5.075230">
						<ele>58</ele>
						<time>2025-04-28T17:32:06Z</time>
					</trkpt>
					<trkpt lat="43.559150" lon="5.075190">
						<ele>58</ele>
						<time>2025-04-28T17:32:08Z</time>
					</trkpt>
					<trkpt lat="43.558930" lon="5.075280">
						<ele>59</ele>
						<time>2025-04-28T17:32:12Z</time>
					</trkpt>
					<trkpt lat="43.558860" lon="5.075330">
						<ele>59</ele>
						<time>2025-04-28T17:32:14Z</time>
					</trkpt>
					<trkpt lat="43.558670" lon="5.075560">
						<ele>59</ele>
						<time>2025-04-28T17:32:18Z</time>
					</trkpt>
					<trkpt lat="43.558600" lon="5.075500">
						<ele>60</ele>
						<time>2025-04-28T17:32:20Z</time>
					</trkpt>
					<trkpt lat="43.558520" lon="5.075500">
						<ele>60</ele>
						<time>2025-04-28T17:32:21Z</time>
					</trkpt>
					<trkpt lat="43.558450" lon="5.075550">
						<ele>60</ele>
						<time>2025-04-28T17:32:23Z</time>
					</trkpt>
					<trkpt lat="43.558410" lon="5.075640">
						<ele>61</ele>
						<time>2025-04-28T17:32:24Z</time>
					</trkpt>
					<trkpt lat="43.558400" lon="5.075750">
						<ele>61</ele>
						<time>2025-04-28T17:32:25Z</time>
					</trkpt>
					<trkpt lat="43.558670" lon="5.076480">
						<ele>58</ele>
						<time>2025-04-28T17:32:36Z</time>
					</trkpt>
					<trkpt lat="43.558760" lon="5.076670">
						<ele>57</ele>
						<time>2025-04-28T17:32:39Z</time>
					</trkpt>
					<trkpt lat="43.558740" lon="5.076620">
						<ele>57</ele>
						<time>2025-04-28T17:32:40Z</time>
					</trkpt>
					<trkpt lat="43.558690" lon="5.076690">
						<ele>57</ele>
						<time>2025-04-28T17:32:41Z</time>
					</trkpt>
					<trkpt lat="43.558640" lon="5.076950">
						<ele>58</ele>
						<time>2025-04-28T17:32:44Z</time>
					</trkpt>
					<trkpt lat="43.558330" lon="5.077710">
						<ele>61</ele>
						<time>2025-04-28T17:32:56Z</time>
					</trkpt>
					<trkpt lat="43.558160" lon="5.078050">
						<ele>62</ele>
						<time>2025-04-28T17:33:01Z</time>
					</trkpt>
					<trkpt lat="43.558010" lon="5.078400">
						<ele>64</ele>
						<time>2025-04-28T17:33:06Z</time>
					</trkpt>
					<trkpt lat="43.557770" lon="5.079590">
						<ele>68</ele>
						<time>2025-04-28T17:33:22Z</time>
					</trkpt>
					<trkpt lat="43.557670" lon="5.079770">
						<ele>69</ele>
						<time>2025-04-28T17:33:25Z</time>
					</trkpt>
					<trkpt lat="43.557670" lon="5.079770">
						<ele>69</ele>
						<time>2025-04-28T17:33:25Z</time>
					</trkpt>
					<trkpt lat="43.558010" lon="5.080000">
						<ele>69</ele>
						<time>2025-04-28T17:33:32Z</time>
					</trkpt>
					<trkpt lat="43.558320" lon="5.080110">
						<ele>69</ele>
						<time>2025-04-28T17:33:37Z</time>
					</trkpt>
					<trkpt lat="43.558990" lon="5.080520">
						<ele>68</ele>
						<time>2025-04-28T17:33:50Z</time>
					</trkpt>
					<trkpt lat="43.559300" lon="5.080780">
						<ele>67</ele>
						<time>2025-04-28T17:33:57Z</time>
					</trkpt>
					<trkpt lat="43.560210" lon="5.081430">
						<ele>68</ele>
						<time>2025-04-28T17:34:15Z</time>
					</trkpt>
					<trkpt lat="43.561520" lon="5.082500">
						<ele>72</ele>
						<time>2025-04-28T17:34:42Z</time>
					</trkpt>
					<trkpt lat="43.562020" lon="5.082830">
						<ele>72</ele>
						<time>2025-04-28T17:34:52Z</time>
					</trkpt>
					<trkpt lat="43.562250" lon="5.083000">
						<ele>72</ele>
						<time>2025-04-28T17:34:57Z</time>
					</trkpt>
					<trkpt lat="43.562590" lon="5.083220">
						<ele>71</ele>
						<time>2025-04-28T17:35:03Z</time>
					</trkpt>
					<trkpt lat="43.562710" lon="5.083280">
						<ele>71</ele>
						<time>2025-04-28T17:35:06Z</time>
					</trkpt>
					<trkpt lat="43.564020" lon="5.084280">
						<ele>71</ele>
						<time>2025-04-28T17:35:32Z</time>
					</trkpt>
					<trkpt lat="43.564520" lon="5.084610">
						<ele>72</ele>
						<time>2025-04-28T17:35:42Z</time>
					</trkpt>
					<trkpt lat="43.564780" lon="5.084870">
						<ele>72</ele>
						<time>2025-04-28T17:35:48Z</time>
					</trkpt>
					<trkpt lat="43.565030" lon="5.085180">
						<ele>72</ele>
						<time>2025-04-28T17:35:54Z</time>
					</trkpt>
					<trkpt lat="43.565310" lon="5.085430">
						<ele>72</ele>
						<time>2025-04-28T17:36:00Z</time>
					</trkpt>
					<trkpt lat="43.566260" lon="5.086460">
						<ele>70</ele>
						<time>2025-04-28T17:36:21Z</time>
					</trkpt>
					<trkpt lat="43.566490" lon="5.086660">
						<ele>69</ele>
						<time>2025-04-28T17:36:26Z</time>
					</trkpt>
					<trkpt lat="43.567440" lon="5.087710">
						<ele>69</ele>
						<time>2025-04-28T17:36:48Z</time>
					</trkpt>
					<trkpt lat="43.567750" lon="5.088120">
						<ele>69</ele>
						<time>2025-04-28T17:36:55Z</time>
					</trkpt>
					<trkpt lat="43.568300" lon="5.088710">
						<ele>69</ele>
						<time>2025-04-28T17:37:08Z</time>
					</trkpt>
					<trkpt lat="43.568470" lon="5.088870">
						<ele>69</ele>
						<time>2025-04-28T17:37:11Z</time>
					</trkpt>
					<trkpt lat="43.568750" lon="5.089080">
						<ele>69</ele>
						<time>2025-04-28T17:37:17Z</time>
					</trkpt>
					<trkpt lat="43.568820" lon="5.089110">
						<ele>68</ele>
						<time>2025-04-28T17:37:18Z</time>
					</trkpt>
					<trkpt lat="43.568870" lon="5.089230">
						<ele>69</ele>
						<time>2025-04-28T17:37:20Z</time>
					</trkpt>
					<trkpt lat="43.569550" lon="5.090160">
						<ele>69</ele>
						<time>2025-04-28T17:37:37Z</time>
					</trkpt>
					<trkpt lat="43.570350" lon="5.090740">
						<ele>67</ele>
						<time>2025-04-28T17:37:53Z</time>
					</trkpt>
					<trkpt lat="43.570480" lon="5.090780">
						<ele>67</ele>
						<time>2025-04-28T17:37:56Z</time>
					</trkpt>
					<trkpt lat="43.570550" lon="5.090730">
						<ele>67</ele>
						<time>2025-04-28T17:37:57Z</time>
					</trkpt>
					<trkpt lat="43.571600" lon="5.091670">
						<ele>67</ele>
						<time>2025-04-28T17:38:19Z</time>
					</trkpt>
					<trkpt lat="43.572250" lon="5.092110">
						<ele>65</ele>
						<time>2025-04-28T17:38:32Z</time>
					</trkpt>
					<trkpt lat="43.575390" lon="5.093460">
						<ele>62</ele>
						<time>2025-04-28T17:39:31Z</time>
					</trkpt>
					<trkpt lat="43.577310" lon="5.094680">
						<ele>64</ele>
						<time>2025-04-28T17:40:08Z</time>
					</trkpt>
					<trkpt lat="43.577360" lon="5.094810">
						<ele>64</ele>
						<time>2025-04-28T17:40:10Z</time>
					</trkpt>
					<trkpt lat="43.577460" lon="5.094860">
						<ele>64</ele>
						<time>2025-04-28T17:40:12Z</time>
					</trkpt>
					<trkpt lat="43.577550" lon="5.094830">
						<ele>64</ele>
						<time>2025-04-28T17:40:14Z</time>
					</trkpt>
					<trkpt lat="43.577610" lon="5.094740">
						<ele>64</ele>
						<time>2025-04-28T17:40:15Z</time>
					</trkpt>
					<trkpt lat="43.577620" lon="5.094680">
						<ele>64</ele>
						<time>2025-04-28T17:40:16Z</time>
					</trkpt>
					<trkpt lat="43.577690" lon="5.094570">
						<ele>63</ele>
						<time>2025-04-28T17:40:18Z</time>
					</trkpt>
					<trkpt lat="43.577800" lon="5.094500">
						<ele>63</ele>
						<time>2025-04-28T17:40:20Z</time>
					</trkpt>
					<trkpt lat="43.578060" lon="5.094390">
						<ele>63</ele>
						<time>2025-04-28T17:40:25Z</time>
					</trkpt>
					<trkpt lat="43.578920" lon="5.094330">
						<ele>63</ele>
						<time>2025-04-28T17:40:40Z</time>
					</trkpt>
					<trkpt lat="43.579230" lon="5.094210">
						<ele>62</ele>
						<time>2025-04-28T17:40:46Z</time>
					</trkpt>
					<trkpt lat="43.580010" lon="5.093650">
						<ele>62</ele>
						<time>2025-04-28T17:41:02Z</time>
					</trkpt>
					<trkpt lat="43.580260" lon="5.093490">
						<ele>63</ele>
						<time>2025-04-28T17:41:07Z</time>
					</trkpt>
					<trkpt lat="43.581090" lon="5.093230">
						<ele>63</ele>
						<time>2025-04-28T17:41:22Z</time>
					</trkpt>
					<trkpt lat="43.581350" lon="5.093110">
						<ele>63</ele>
						<time>2025-04-28T17:41:27Z</time>
					</trkpt>
					<trkpt lat="43.581800" lon="5.092780">
						<ele>62</ele>
						<time>2025-04-28T17:41:36Z</time>
					</trkpt>
					<trkpt lat="43.582790" lon="5.091970">
						<ele>62</ele>
						<time>2025-04-28T17:41:56Z</time>
					</trkpt>
					<trkpt lat="43.583130" lon="5.091730">
						<ele>61</ele>
						<time>2025-04-28T17:42:03Z</time>
					</trkpt>
					<trkpt lat="43.583340" lon="5.091650">
						<ele>61</ele>
						<time>2025-04-28T17:42:07Z</time>
					</trkpt>
					<trkpt lat="43.583990" lon="5.091590">
						<ele>62</ele>
						<time>2025-04-28T17:42:18Z</time>
					</trkpt>
					<trkpt lat="43.584190" lon="5.091530">
						<ele>62</ele>
						<time>2025-04-28T17:42:22Z</time>
					</trkpt>
					<trkpt lat="43.585050" lon="5.091090">
						<ele>60</ele>
						<time>2025-04-28T17:42:38Z</time>
					</trkpt>
					<trkpt lat="43.585460" lon="5.090930">
						<ele>59</ele>
						<time>2025-04-28T17:42:46Z</time>
					</trkpt>
					<trkpt lat="43.586830" lon="5.090650">
						<ele>56</ele>
						<time>2025-04-28T17:43:11Z</time>
					</trkpt>
					<trkpt lat="43.587100" lon="5.090610">
						<ele>56</ele>
						<time>2025-04-28T17:43:16Z</time>
					</trkpt>
					<trkpt lat="43.587440" lon="5.090600">
						<ele>55</ele>
						<time>2025-04-28T17:43:22Z</time>
					</trkpt>
					<trkpt lat="43.587670" lon="5.090540">
						<ele>55</ele>
						<time>2025-04-28T17:43:26Z</time>
					</trkpt>
					<trkpt lat="43.587810" lon="5.090480">
						<ele>56</ele>
						<time>2025-04-28T17:43:28Z</time>
					</trkpt>
					<trkpt lat="43.588630" lon="5.090080">
						<ele>58</ele>
						<time>2025-04-28T17:43:44Z</time>
					</trkpt>
					<trkpt lat="43.588730" lon="5.089970">
						<ele>58</ele>
						<time>2025-04-28T17:43:46Z</time>
					</trkpt>
					<trkpt lat="43.588760" lon="5.089910">
						<ele>58</ele>
						<time>2025-04-28T17:43:47Z</time>
					</trkpt>
					<trkpt lat="43.588900" lon="5.089910">
						<ele>58</ele>
						<time>2025-04-28T17:43:50Z</time>
					</trkpt>
					<trkpt lat="43.589210" lon="5.089840">
						<ele>58</ele>
						<time>2025-04-28T17:43:55Z</time>
					</trkpt>
					<trkpt lat="43.590420" lon="5.089470">
						<ele>58</ele>
						<time>2025-04-28T17:44:17Z</time>
					</trkpt>
					<trkpt lat="43.590700" lon="5.089440">
						<ele>58</ele>
						<time>2025-04-28T17:44:22Z</time>
					</trkpt>
					<trkpt lat="43.590810" lon="5.089510">
						<ele>58</ele>
						<time>2025-04-28T17:44:24Z</time>
					</trkpt>
					<trkpt lat="43.591090" lon="5.089740">
						<ele>59</ele>
						<time>2025-04-28T17:44:30Z</time>
					</trkpt>
					<trkpt lat="43.592740" lon="5.091210">
						<ele>59</ele>
						<time>2025-04-28T17:45:05Z</time>
					</trkpt>
					<trkpt lat="43.592950" lon="5.091360">
						<ele>58</ele>
						<time>2025-04-28T17:45:09Z</time>
					</trkpt>
					<trkpt lat="43.593110" lon="5.091430">
						<ele>58</ele>
						<time>2025-04-28T17:45:12Z</time>
					</trkpt>
					<trkpt lat="43.593460" lon="5.091500">
						<ele>57</ele>
						<time>2025-04-28T17:45:19Z</time>
					</trkpt>
					<trkpt lat="43.593760" lon="5.091540">
						<ele>57</ele>
						<time>2025-04-28T17:45:24Z</time>
					</trkpt>
					<trkpt lat="43.593920" lon="5.091490">
						<ele>57</ele>
						<time>2025-04-28T17:45:27Z</time>
					</trkpt>
					<trkpt lat="43.594280" lon="5.091260">
						<ele>57</ele>
						<time>2025-04-28T17:45:34Z</time>
					</trkpt>
					<trkpt lat="43.594420" lon="5.091210">
						<ele>56</ele>
						<time>2025-04-28T17:45:36Z</time>
					</trkpt>
					<trkpt lat="43.594540" lon="5.091210">
						<ele>56</ele>
						<time>2025-04-28T17:45:39Z</time>
					</trkpt>
					<trkpt lat="43.594760" lon="5.091240">
						<ele>55</ele>
						<time>2025-04-28T17:45:43Z</time>
					</trkpt>
					<trkpt lat="43.595440" lon="5.091400">
						<ele>55</ele>
						<time>2025-04-28T17:45:55Z</time>
					</trkpt>
					<trkpt lat="43.597330" lon="5.091810">
						<ele>57</ele>
						<time>2025-04-28T17:46:29Z</time>
					</trkpt>
					<trkpt lat="43.597510" lon="5.091930">
						<ele>57</ele>
						<time>2025-04-28T17:46:32Z</time>
					</trkpt>
					<trkpt lat="43.597570" lon="5.092010">
						<ele>57</ele>
						<time>2025-04-28T17:46:34Z</time>
					</trkpt>
					<trkpt lat="43.597600" lon="5.092090">
						<ele>57</ele>
						<time>2025-04-28T17:46:35Z</time>
					</trkpt>
					<trkpt lat="43.597650" lon="5.092140">
						<ele>57</ele>
						<time>2025-04-28T17:46:36Z</time>
					</trkpt>
					<trkpt lat="43.597710" lon="5.092160">
						<ele>57</ele>
						<time>2025-04-28T17:46:37Z</time>
					</trkpt>
					<trkpt lat="43.597810" lon="5.092120">
						<ele>57</ele>
						<time>2025-04-28T17:46:39Z</time>
					</trkpt>
					<trkpt lat="43.597850" lon="5.092070">
						<ele>57</ele>
						<time>2025-04-28T17:46:40Z</time>
					</trkpt>
					<trkpt lat="43.597970" lon="5.092020">
						<ele>58</ele>
						<time>2025-04-28T17:46:42Z</time>
					</trkpt>
					<trkpt lat="43.598980" lon="5.092380">
						<ele>58</ele>
						<time>2025-04-28T17:47:01Z</time>
					</trkpt>
					<trkpt lat="43.600250" lon="5.093360">
						<ele>59</ele>
						<time>2025-04-28T17:47:27Z</time>
					</trkpt>
					<trkpt lat="43.601240" lon="5.094240">
						<ele>60</ele>
						<time>2025-04-28T17:47:48Z</time>
					</trkpt>
					<trkpt lat="43.601630" lon="5.095360">
						<ele>63</ele>
						<time>2025-04-28T17:48:04Z</time>
					</trkpt>
					<trkpt lat="43.602530" lon="5.097060">
						<ele>61</ele>
						<time>2025-04-28T17:48:31Z</time>
					</trkpt>
					<trkpt lat="43.602700" lon="5.097280">
						<ele>61</ele>
						<time>2025-04-28T17:48:35Z</time>
					</trkpt>
					<trkpt lat="43.602870" lon="5.097380">
						<ele>61</ele>
						<time>2025-04-28T17:48:38Z</time>
					</trkpt>
					<trkpt lat="43.604910" lon="5.095640">
						<ele>61</ele>
						<time>2025-04-28T17:49:21Z</time>
					</trkpt>
					<trkpt lat="43.604460" lon="5.094330">
						<ele>59</ele>
						<time>2025-04-28T17:49:40Z</time>
					</trkpt>
					<trkpt lat="43.604460" lon="5.093760">
						<ele>58</ele>
						<time>2025-04-28T17:49:47Z</time>
					</trkpt>
					<trkpt lat="43.604420" lon="5.093360">
						<ele>58</ele>
						<time>2025-04-28T17:49:52Z</time>
					</trkpt>
					<trkpt lat="43.603960" lon="5.091970">
						<ele>58</ele>
						<time>2025-04-28T17:50:12Z</time>
					</trkpt>
					<trkpt lat="43.604000" lon="5.091590">
						<ele>58</ele>
						<time>2025-04-28T17:50:17Z</time>
					</trkpt>
					<trkpt lat="43.603950" lon="5.091420">
						<ele>58</ele>
						<time>2025-04-28T17:50:19Z</time>
					</trkpt>
					<trkpt lat="43.603840" lon="5.091290">
						<ele>58</ele>
						<time>2025-04-28T17:50:22Z</time>
					</trkpt>
					<trkpt lat="43.603780" lon="5.091100">
						<ele>58</ele>
						<time>2025-04-28T17:50:24Z</time>
					</trkpt>
					<trkpt lat="43.603790" lon="5.090830">
						<ele>58</ele>
						<time>2025-04-28T17:50:28Z</time>
					</trkpt>
					<trkpt lat="43.603860" lon="5.090580">
						<ele>58</ele>
						<time>2025-04-28T17:50:31Z</time>
					</trkpt>
					<trkpt lat="43.603960" lon="5.090320">
						<ele>58</ele>
						<time>2025-04-28T17:50:35Z</time>
					</trkpt>
					<trkpt lat="43.604090" lon="5.089970">
						<ele>58</ele>
						<time>2025-04-28T17:50:40Z</time>
					</trkpt>
					<trkpt lat="43.604160" lon="5.089740">
						<ele>58</ele>
						<time>2025-04-28T17:50:43Z</time>
					</trkpt>
					<trkpt lat="43.604120" lon="5.088740">
						<ele>58</ele>
						<time>2025-04-28T17:50:56Z</time>
					</trkpt>
					<trkpt lat="43.604190" lon="5.087850">
						<ele>59</ele>
						<time>2025-04-28T17:51:08Z</time>
					</trkpt>
					<trkpt lat="43.604170" lon="5.087540">
						<ele>59</ele>
						<time>2025-04-28T17:51:12Z</time>
					</trkpt>
					<trkpt lat="43.603920" lon="5.086580">
						<ele>58</ele>
						<time>2025-04-28T17:51:25Z</time>
					</trkpt>
					<trkpt lat="43.603780" lon="5.086110">
						<ele>58</ele>
						<time>2025-04-28T17:51:32Z</time>
					</trkpt>
					<trkpt lat="43.603700" lon="5.085650">
						<ele>58</ele>
						<time>2025-04-28T17:51:38Z</time>
					</trkpt>
					<trkpt lat="43.603600" lon="5.085340">
						<ele>59</ele>
						<time>2025-04-28T17:51:42Z</time>
					</trkpt>
					<trkpt lat="43.603420" lon="5.085000">
						<ele>59</ele>
						<time>2025-04-28T17:51:47Z</time>
					</trkpt>
					<trkpt lat="43.603370" lon="5.084680">
						<ele>59</ele>
						<time>2025-04-28T17:51:52Z</time>
					</trkpt>
					<trkpt lat="43.603400" lon="5.084300">
						<ele>59</ele>
						<time>2025-04-28T17:51:57Z</time>
					</trkpt>
					<trkpt lat="43.603560" lon="5.083840">
						<ele>59</ele>
						<time>2025-04-28T17:52:03Z</time>
					</trkpt>
					<trkpt lat="43.603640" lon="5.083550">
						<ele>59</ele>
						<time>2025-04-28T17:52:07Z</time>
					</trkpt>
					<trkpt lat="43.604000" lon="5.083090">
						<ele>59</ele>
						<time>2025-04-28T17:52:16Z</time>
					</trkpt>
					<trkpt lat="43.604090" lon="5.082860">
						<ele>59</ele>
						<time>2025-04-28T17:52:19Z</time>
					</trkpt>
					<trkpt lat="43.604090" lon="5.082650">
						<ele>59</ele>
						<time>2025-04-28T17:52:22Z</time>
					</trkpt>
					<trkpt lat="43.604010" lon="5.082200">
						<ele>59</ele>
						<time>2025-04-28T17:52:28Z</time>
					</trkpt>
					<trkpt lat="43.604010" lon="5.081910">
						<ele>60</ele>
						<time>2025-04-28T17:52:32Z</time>
					</trkpt>
					<trkpt lat="43.604110" lon="5.081150">
						<ele>59</ele>
						<time>2025-04-28T17:52:42Z</time>
					</trkpt>
					<trkpt lat="43.604080" lon="5.080910">
						<ele>59</ele>
						<time>2025-04-28T17:52:45Z</time>
					</trkpt>
					<trkpt lat="43.603980" lon="5.080690">
						<ele>59</ele>
						<time>2025-04-28T17:52:48Z</time>
					</trkpt>
					<trkpt lat="43.603880" lon="5.080420">
						<ele>58</ele>
						<time>2025-04-28T17:52:52Z</time>
					</trkpt>
					<trkpt lat="43.603790" lon="5.079860">
						<ele>58</ele>
						<time>2025-04-28T17:52:59Z</time>
					</trkpt>
					<trkpt lat="43.603810" lon="5.079640">
						<ele>58</ele>
						<time>2025-04-28T17:53:02Z</time>
					</trkpt>
					<trkpt lat="43.603850" lon="5.079210">
						<ele>59</ele>
						<time>2025-04-28T17:53:08Z</time>
					</trkpt>
					<trkpt lat="43.603800" lon="5.078970">
						<ele>59</ele>
						<time>2025-04-28T17:53:11Z</time>
					</trkpt>
					<trkpt lat="43.603210" lon="5.077280">
						<ele>61</ele>
						<time>2025-04-28T17:53:35Z</time>
					</trkpt>
					<trkpt lat="43.602880" lon="5.076380">
						<ele>62</ele>
						<time>2025-04-28T17:53:48Z</time>
					</trkpt>
					<trkpt lat="43.602600" lon="5.075450">
						<ele>60</ele>
						<time>2025-04-28T17:54:01Z</time>
					</trkpt>
					<trkpt lat="43.602410" lon="5.075120">
						<ele>59</ele>
						<time>2025-04-28T17:54:07Z</time>
					</trkpt>
					<trkpt lat="43.602440" lon="5.074650">
						<ele>59</ele>
						<time>2025-04-28T17:54:13Z</time>
					</trkpt>
					<trkpt lat="43.602480" lon="5.074270">
						<ele>59</ele>
						<time>2025-04-28T17:54:18Z</time>
					</trkpt>
					<trkpt lat="43.602430" lon="5.074010">
						<ele>59</ele>
						<time>2025-04-28T17:54:21Z</time>
					</trkpt>
					<trkpt lat="43.602450" lon="5.073820">
						<ele>59</ele>
						<time>2025-04-28T17:54:24Z</time>
					</trkpt>
					<trkpt lat="43.602720" lon="5.073410">
						<ele>60</ele>
						<time>2025-04-28T17:54:31Z</time>
					</trkpt>
					<trkpt lat="43.603000" lon="5.072920">
						<ele>60</ele>
						<time>2025-04-28T17:54:39Z</time>
					</trkpt>
					<trkpt lat="43.603220" lon="5.072500">
						<ele>60</ele>
						<time>2025-04-28T17:54:45Z</time>
					</trkpt>
					<trkpt lat="43.603460" lon="5.072060">
						<ele>60</ele>
						<time>2025-04-28T17:54:53Z</time>
					</trkpt>
					<trkpt lat="43.603850" lon="5.070580">
						<ele>60</ele>
						<time>2025-04-28T17:55:13Z</time>
					</trkpt>
					<trkpt lat="43.604100" lon="5.070560">
						<ele>59</ele>
						<time>2025-04-28T17:55:17Z</time>
					</trkpt>
					<trkpt lat="43.604340" lon="5.070180">
						<ele>58</ele>
						<time>2025-04-28T17:55:24Z</time>
					</trkpt>
					<trkpt lat="43.604490" lon="5.070000">
						<ele>57</ele>
						<time>2025-04-28T17:55:27Z</time>
					</trkpt>
					<trkpt lat="43.604690" lon="5.070060">
						<ele>56</ele>
						<time>2025-04-28T17:55:31Z</time>
					</trkpt>
					<trkpt lat="43.604840" lon="5.070240">
						<ele>56</ele>
						<time>2025-04-28T17:55:35Z</time>
					</trkpt>
					<trkpt lat="43.605030" lon="5.070630">
						<ele>56</ele>
						<time>2025-04-28T17:55:41Z</time>
					</trkpt>
					<trkpt lat="43.605130" lon="5.070800">
						<ele>57</ele>
						<time>2025-04-28T17:55:43Z</time>
					</trkpt>
					<trkpt lat="43.605390" lon="5.070940">
						<ele>57</ele>
						<time>2025-04-28T17:55:48Z</time>
					</trkpt>
					<trkpt lat="43.605500" lon="5.071080">
						<ele>57</ele>
						<time>2025-04-28T17:55:51Z</time>
					</trkpt>
					<trkpt lat="43.606020" lon="5.070810">
						<ele>56</ele>
						<time>2025-04-28T17:56:01Z</time>
					</trkpt>
					<trkpt lat="43.606390" lon="5.070930">
						<ele>56</ele>
						<time>2025-04-28T17:56:08Z</time>
					</trkpt>
					<trkpt lat="43.606610" lon="5.070950">
						<ele>55</ele>
						<time>2025-04-28T17:56:12Z</time>
					</trkpt>
					<trkpt lat="43.606750" lon="5.070870">
						<ele>55</ele>
						<time>2025-04-28T17:56:14Z</time>
					</trkpt>
					<trkpt lat="43.606970" lon="5.070420">
						<ele>56</ele>
						<time>2025-04-28T17:56:21Z</time>
					</trkpt>
					<trkpt lat="43.607130" lon="5.070120">
						<ele>56</ele>
						<time>2025-04-28T17:56:26Z</time>
					</trkpt>
					<trkpt lat="43.607550" lon="5.070060">
						<ele>58</ele>
						<time>2025-04-28T17:56:34Z</time>
					</trkpt>
					<trkpt lat="43.608040" lon="5.069910">
						<ele>59</ele>
						<time>2025-04-28T17:56:43Z</time>
					</trkpt>
					<trkpt lat="43.608510" lon="5.069700">
						<ele>58</ele>
						<time>2025-04-28T17:56:51Z</time>
					</trkpt>
					<trkpt lat="43.608610" lon="5.069620">
						<ele>58</ele>
						<time>2025-04-28T17:56:53Z</time>
					</trkpt>
					<trkpt lat="43.608940" lon="5.068790">
						<ele>57</ele>
						<time>2025-04-28T17:57:06Z</time>
					</trkpt>
					<trkpt lat="43.609070" lon="5.068650">
						<ele>58</ele>
						<time>2025-04-28T17:57:08Z</time>
					</trkpt>
					<trkpt lat="43.609280" lon="5.068590">
						<ele>58</ele>
						<time>2025-04-28T17:57:12Z</time>
					</trkpt>
					<trkpt lat="43.609700" lon="5.068560">
						<ele>60</ele>
						<time>2025-04-28T17:57:20Z</time>
					</trkpt>
					<trkpt lat="43.610010" lon="5.068360">
						<ele>61</ele>
						<time>2025-04-28T17:57:26Z</time>
					</trkpt>
					<trkpt lat="43.610370" lon="5.068340">
						<ele>62</ele>
						<time>2025-04-28T17:57:32Z</time>
					</trkpt>
					<trkpt lat="43.610550" lon="5.069210">
						<ele>62</ele>
						<time>2025-04-28T17:57:44Z</time>
					</trkpt>
					<trkpt lat="43.610550" lon="5.070250">
						<ele>63</ele>
						<time>2025-04-28T17:57:57Z</time>
					</trkpt>
					<trkpt lat="43.610680" lon="5.070800">
						<ele>65</ele>
						<time>2025-04-28T17:58:05Z</time>
					</trkpt>
					<trkpt lat="43.610590" lon="5.071230">
						<ele>64</ele>
						<time>2025-04-28T17:58:11Z</time>
					</trkpt>
					<trkpt lat="43.610500" lon="5.071930">
						<ele>63</ele>
						<time>2025-04-28T17:58:20Z</time>
					</trkpt>
					<trkpt lat="43.610510" lon="5.072630">
						<ele>63</ele>
						<time>2025-04-28T17:58:29Z</time>
					</trkpt>
					<trkpt lat="43.610810" lon="5.073470">
						<ele>62</ele>
						<time>2025-04-28T17:58:41Z</time>
					</trkpt>
					<trkpt lat="43.611880" lon="5.074830">
						<ele>64</ele>
						<time>2025-04-28T17:59:07Z</time>
					</trkpt>
					<trkpt lat="43.612270" lon="5.075220">
						<ele>65</ele>
						<time>2025-04-28T17:59:15Z</time>
					</trkpt>
					<trkpt lat="43.612570" lon="5.075470">
						<ele>65</ele>
						<time>2025-04-28T17:59:21Z</time>
					</trkpt>
					<trkpt lat="43.612740" lon="5.075560">
						<ele>65</ele>
						<time>2025-04-28T17:59:25Z</time>
					</trkpt>
					<trkpt lat="43.612870" lon="5.076020">
						<ele>65</ele>
						<time>2025-04-28T17:59:31Z</time>
					</trkpt>
					<trkpt lat="43.613050" lon="5.076360">
						<ele>66</ele>
						<time>2025-04-28T17:59:37Z</time>
					</trkpt>
					<trkpt lat="43.613080" lon="5.076520">
						<ele>66</ele>
						<time>2025-04-28T17:59:39Z</time>
					</trkpt>
					<trkpt lat="43.613200" lon="5.077400">
						<ele>65</ele>
						<time>2025-04-28T17:59:50Z</time>
					</trkpt>
					<trkpt lat="43.613610" lon="5.079100">
						<ele>67</ele>
						<time>2025-04-28T18:00:13Z</time>
					</trkpt>
					<trkpt lat="43.614110" lon="5.081020">
						<ele>68</ele>
						<time>2025-04-28T18:00:40Z</time>
					</trkpt>
					<trkpt lat="43.614230" lon="5.081580">
						<ele>66</ele>
						<time>2025-04-28T18:00:47Z</time>
					</trkpt>
					<trkpt lat="43.614390" lon="5.082120">
						<ele>66</ele>
						<time>2025-04-28T18:00:55Z</time>
					</trkpt>
					<trkpt lat="43.614600" lon="5.083190">
						<ele>66</ele>
						<time>2025-04-28T18:01:09Z</time>
					</trkpt>
					<trkpt lat="43.614880" lon="5.084320">
						<ele>66</ele>
						<time>2025-04-28T18:01:24Z</time>
					</trkpt>
					<trkpt lat="43.615000" lon="5.084730">
						<ele>65</ele>
						<time>2025-04-28T18:01:30Z</time>
					</trkpt>
					<trkpt lat="43.615680" lon="5.087380">
						<ele>67</ele>
						<time>2025-04-28T18:02:06Z</time>
					</trkpt>
					<trkpt lat="43.616510" lon="5.086990">
						<ele>67</ele>
						<time>2025-04-28T18:02:22Z</time>
					</trkpt>
					<trkpt lat="43.616770" lon="5.086850">
						<ele>67</ele>
						<time>2025-04-28T18:02:27Z</time>
					</trkpt>
					<trkpt lat="43.617030" lon="5.086760">
						<ele>68</ele>
						<time>2025-04-28T18:02:31Z</time>
					</trkpt>
					<trkpt lat="43.617340" lon="5.086620">
						<ele>69</ele>
						<time>2025-04-28T18:02:37Z</time>
					</trkpt>
					<trkpt lat="43.617520" lon="5.086580">
						<ele>69</ele>
						<time>2025-04-28T18:02:41Z</time>
					</trkpt>
					<trkpt lat="43.617650" lon="5.086600">
						<ele>69</ele>
						<time>2025-04-28T18:02:43Z</time>
					</trkpt>
					<trkpt lat="43.618300" lon="5.087050">
						<ele>69</ele>
						<time>2025-04-28T18:02:56Z</time>
					</trkpt>
					<trkpt lat="43.618750" lon="5.087210">
						<ele>68</ele>
						<time>2025-04-28T18:03:04Z</time>
					</trkpt>
					<trkpt lat="43.619010" lon="5.087240">
						<ele>68</ele>
						<time>2025-04-28T18:03:09Z</time>
					</trkpt>
					<trkpt lat="43.619220" lon="5.087210">
						<ele>68</ele>
						<time>2025-04-28T18:03:12Z</time>
					</trkpt>
					<trkpt lat="43.619450" lon="5.087150">
						<ele>69</ele>
						<time>2025-04-28T18:03:17Z</time>
					</trkpt>
					<trkpt lat="43.620380" lon="5.086820">
						<ele>70</ele>
						<time>2025-04-28T18:03:34Z</time>
					</trkpt>
					<trkpt lat="43.621490" lon="5.086170">
						<ele>69</ele>
						<time>2025-04-28T18:03:55Z</time>
					</trkpt>
					<trkpt lat="43.621650" lon="5.086500">
						<ele>70</ele>
						<time>2025-04-28T18:04:00Z</time>
					</trkpt>
					<trkpt lat="43.621760" lon="5.086620">
						<ele>71</ele>
						<time>2025-04-28T18:04:03Z</time>
					</trkpt>
					<trkpt lat="43.621910" lon="5.086710">
						<ele>70</ele>
						<time>2025-04-28T18:04:06Z</time>
					</trkpt>
					<trkpt lat="43.622070" lon="5.086760">
						<ele>70</ele>
						<time>2025-04-28T18:04:09Z</time>
					</trkpt>
					<trkpt lat="43.622210" lon="5.086780">
						<ele>70</ele>
						<time>2025-04-28T18:04:11Z</time>
					</trkpt>
					<trkpt lat="43.622330" lon="5.086760">
						<ele>69</ele>
						<time>2025-04-28T18:04:13Z</time>
					</trkpt>
					<trkpt lat="43.622510" lon="5.086670">
						<ele>69</ele>
						<time>2025-04-28T18:04:17Z</time>
					</trkpt>
					<trkpt lat="43.622190" lon="5.083320">
						<ele>69</ele>
						<time>2025-04-28T18:05:00Z</time>
					</trkpt>
					<trkpt lat="43.622310" lon="5.082590">
						<ele>67</ele>
						<time>2025-04-28T18:05:10Z</time>
					</trkpt>
					<trkpt lat="43.622770" lon="5.080660">
						<ele>70</ele>
						<time>2025-04-28T18:05:36Z</time>
					</trkpt>
					<trkpt lat="43.622900" lon="5.080270">
						<ele>70</ele>
						<time>2025-04-28T18:05:42Z</time>
					</trkpt>
					<trkpt lat="43.623090" lon="5.079800">
						<ele>71</ele>
						<time>2025-04-28T18:05:48Z</time>
					</trkpt>
					<trkpt lat="43.623330" lon="5.079350">
						<ele>71</ele>
						<time>2025-04-28T18:05:56Z</time>
					</trkpt>
					<trkpt lat="43.623580" lon="5.078960">
						<ele>71</ele>
						<time>2025-04-28T18:06:02Z</time>
					</trkpt>
					<trkpt lat="43.623760" lon="5.078670">
						<ele>71</ele>
						<time>2025-04-28T18:06:07Z</time>
					</trkpt>
					<trkpt lat="43.623850" lon="5.078500">
						<ele>71</ele>
						<time>2025-04-28T18:06:10Z</time>
					</trkpt>
					<trkpt lat="43.623940" lon="5.078140">
						<ele>71</ele>
						<time>2025-04-28T18:06:15Z</time>
					</trkpt>
					<trkpt lat="43.624110" lon="5.077360">
						<ele>71</ele>
						<time>2025-04-28T18:06:25Z</time>
					</trkpt>
					<trkpt lat="43.624160" lon="5.077070">
						<ele>71</ele>
						<time>2025-04-28T18:06:29Z</time>
					</trkpt>
					<trkpt lat="43.624230" lon="5.076320">
						<ele>71</ele>
						<time>2025-04-28T18:06:39Z</time>
					</trkpt>
					<trkpt lat="43.624260" lon="5.076030">
						<ele>71</ele>
						<time>2025-04-28T18:06:43Z</time>
					</trkpt>
					<trkpt lat="43.624240" lon="5.075880">
						<ele>70</ele>
						<time>2025-04-28T18:06:45Z</time>
					</trkpt>
					<trkpt lat="43.624380" lon="5.075850">
						<ele>71</ele>
						<time>2025-04-28T18:06:47Z</time>
					</trkpt>
					<trkpt lat="43.624490" lon="5.075870">
						<ele>72</ele>
						<time>2025-04-28T18:06:49Z</time>
					</trkpt>
					<trkpt lat="43.624580" lon="5.075920">
						<ele>72</ele>
						<time>2025-04-28T18:06:51Z</time>
					</trkpt>
					<trkpt lat="43.624910" lon="5.076250">
						<ele>74</ele>
						<time>2025-04-28T18:06:58Z</time>
					</trkpt>
					<trkpt lat="43.625510" lon="5.076820">
						<ele>72</ele>
						<time>2025-04-28T18:07:11Z</time>
					</trkpt>
					<trkpt lat="43.625710" lon="5.076990">
						<ele>72</ele>
						<time>2025-04-28T18:07:15Z</time>
					</trkpt>
					<trkpt lat="43.625890" lon="5.077080">
						<ele>72</ele>
						<time>2025-04-28T18:07:19Z</time>
					</trkpt>
					<trkpt lat="43.626020" lon="5.077110">
						<ele>72</ele>
						<time>2025-04-28T18:07:21Z</time>
					</trkpt>
					<trkpt lat="43.626000" lon="5.076960">
						<ele>72</ele>
						<time>2025-04-28T18:07:23Z</time>
					</trkpt>
					<trkpt lat="43.625950" lon="5.076720">
						<ele>72</ele>
						<time>2025-04-28T18:07:26Z</time>
					</trkpt>
					<trkpt lat="43.625760" lon="5.075920">
						<ele>72</ele>
						<time>2025-04-28T18:07:37Z</time>
					</trkpt>
					<trkpt lat="43.625600" lon="5.075280">
						<ele>73</ele>
						<time>2025-04-28T18:07:46Z</time>
					</trkpt>
					<trkpt lat="43.625290" lon="5.073690">
						<ele>70</ele>
						<time>2025-04-28T18:08:07Z</time>
					</trkpt>
					<trkpt lat="43.625270" lon="5.073310">
						<ele>69</ele>
						<time>2025-04-28T18:08:12Z</time>
					</trkpt>
					<trkpt lat="43.625260" lon="5.073060">
						<ele>69</ele>
						<time>2025-04-28T18:08:15Z</time>
					</trkpt>
					<trkpt lat="43.625100" lon="5.071840">
						<ele>70</ele>
						<time>2025-04-28T18:08:31Z</time>
					</trkpt>
					<trkpt lat="43.624910" lon="5.070330">
						<ele>68</ele>
						<time>2025-04-28T18:08:51Z</time>
					</trkpt>
					<trkpt lat="43.624780" lon="5.069270">
						<ele>69</ele>
						<time>2025-04-28T18:09:05Z</time>
					</trkpt>
					<trkpt lat="43.624610" lon="5.067990">
						<ele>68</ele>
						<time>2025-04-28T18:09:21Z</time>
					</trkpt>
					<trkpt lat="43.624510" lon="5.067240">
						<ele>69</ele>
						<time>2025-04-28T18:09:31Z</time>
					</trkpt>
					<trkpt lat="43.624390" lon="5.066150">
						<ele>69</ele>
						<time>2025-04-28T18:09:46Z</time>
					</trkpt>
					<trkpt lat="43.624240" lon="5.065090">
						<ele>68</ele>
						<time>2025-04-28T18:09:59Z</time>
					</trkpt>
					<trkpt lat="43.624130" lon="5.064180">
						<ele>68</ele>
						<time>2025-04-28T18:10:11Z</time>
					</trkpt>
					<trkpt lat="43.623950" lon="5.062850">
						<ele>69</ele>
						<time>2025-04-28T18:10:29Z</time>
					</trkpt>
					<trkpt lat="43.623710" lon="5.061390">
						<ele>68</ele>
						<time>2025-04-28T18:10:48Z</time>
					</trkpt>
					<trkpt lat="43.623130" lon="5.061470">
						<ele>68</ele>
						<time>2025-04-28T18:10:58Z</time>
					</trkpt>
					<trkpt lat="43.622840" lon="5.061270">
						<ele>68</ele>
						<time>2025-04-28T18:11:04Z</time>
					</trkpt>
					<trkpt lat="43.620630" lon="5.061360">
						<ele>65</ele>
						<time>2025-04-28T18:11:43Z</time>
					</trkpt>
					<trkpt lat="43.618780" lon="5.061470">
						<ele>68</ele>
						<time>2025-04-28T18:12:16Z</time>
					</trkpt>
					<trkpt lat="43.618440" lon="5.061440">
						<ele>68</ele>
						<time>2025-04-28T18:12:23Z</time>
					</trkpt>
					<trkpt lat="43.617910" lon="5.061410">
						<ele>68</ele>
						<time>2025-04-28T18:12:32Z</time>
					</trkpt>
					<trkpt lat="43.617390" lon="5.061500">
						<ele>67</ele>
						<time>2025-04-28T18:12:41Z</time>
					</trkpt>
					<trkpt lat="43.617130" lon="5.061610">
						<ele>67</ele>
						<time>2025-04-28T18:12:46Z</time>
					</trkpt>
					<trkpt lat="43.616760" lon="5.061800">
						<ele>67</ele>
						<time>2025-04-28T18:12:53Z</time>
					</trkpt>
					<trkpt lat="43.615900" lon="5.062000">
						<ele>66</ele>
						<time>2025-04-28T18:13:09Z</time>
					</trkpt>
					<trkpt lat="43.615470" lon="5.061310">
						<ele>66</ele>
						<time>2025-04-28T18:13:20Z</time>
					</trkpt>
					<trkpt lat="43.614620" lon="5.059810">
						<ele>64</ele>
						<time>2025-04-28T18:13:45Z</time>
					</trkpt>
					<trkpt lat="43.614250" lon="5.059330">
						<ele>64</ele>
						<time>2025-04-28T18:13:54Z</time>
					</trkpt>
					<trkpt lat="43.613900" lon="5.059160">
						<ele>65</ele>
						<time>2025-04-28T18:14:01Z</time>
					</trkpt>
					<trkpt lat="43.613350" lon="5.059160">
						<ele>66</ele>
						<time>2025-04-28T18:14:10Z</time>
					</trkpt>
					<trkpt lat="43.613710" lon="5.058740">
						<ele>65</ele>
						<time>2025-04-28T18:14:19Z</time>
					</trkpt>
					<trkpt lat="43.614480" lon="5.058000">
						<ele>65</ele>
						<time>2025-04-28T18:14:35Z</time>
					</trkpt>
					<trkpt lat="43.616580" lon="5.055900">
						<ele>67</ele>
						<time>2025-04-28T18:15:22Z</time>
					</trkpt>
					<trkpt lat="43.617850" lon="5.054640">
						<ele>68</ele>
						<time>2025-04-28T18:15:49Z</time>
					</trkpt>
					<trkpt lat="43.618800" lon="5.053690">
						<ele>69</ele>
						<time>2025-04-28T18:16:10Z</time>
					</trkpt>
					<trkpt lat="43.620420" lon="5.051960">
						<ele>66</ele>
						<time>2025-04-28T18:16:47Z</time>
					</trkpt>
					<trkpt lat="43.620520" lon="5.051550">
						<ele>65</ele>
						<time>2025-04-28T18:16:52Z</time>
					</trkpt>
					<trkpt lat="43.620660" lon="5.050200">
						<ele>65</ele>
						<time>2025-04-28T18:17:10Z</time>
					</trkpt>
					<trkpt lat="43.620760" lon="5.049650">
						<ele>64</ele>
						<time>2025-04-28T18:17:17Z</time>
					</trkpt>
					<trkpt lat="43.620860" lon="5.049140">
						<ele>63</ele>
						<time>2025-04-28T18:17:24Z</time>
					</trkpt>
					<trkpt lat="43.620830" lon="5.047280">
						<ele>65</ele>
						<time>2025-04-28T18:17:48Z</time>
					</trkpt>
					<trkpt lat="43.621170" lon="5.045640">
						<ele>66</ele>
						<time>2025-04-28T18:18:10Z</time>
					</trkpt>
					<trkpt lat="43.621190" lon="5.044410">
						<ele>64</ele>
						<time>2025-04-28T18:18:26Z</time>
					</trkpt>
					<trkpt lat="43.621130" lon="5.044130">
						<ele>64</ele>
						<time>2025-04-28T18:18:29Z</time>
					</trkpt>
					<trkpt lat="43.620160" lon="5.040910">
						<ele>65</ele>
						<time>2025-04-28T18:19:14Z</time>
					</trkpt>
					<trkpt lat="43.619610" lon="5.039200">
						<ele>64</ele>
						<time>2025-04-28T18:19:38Z</time>
					</trkpt>
					<trkpt lat="43.619130" lon="5.037700">
						<ele>64</ele>
						<time>2025-04-28T18:20:00Z</time>
					</trkpt>
					<trkpt lat="43.618950" lon="5.037130">
						<ele>64</ele>
						<time>2025-04-28T18:20:08Z</time>
					</trkpt>
					<trkpt lat="43.618490" lon="5.037010">
						<ele>64</ele>
						<time>2025-04-28T18:20:16Z</time>
					</trkpt>
					<trkpt lat="43.618000" lon="5.036770">
						<ele>64</ele>
						<time>2025-04-28T18:20:25Z</time>
					</trkpt>
					<trkpt lat="43.617170" lon="5.036380">
						<ele>63</ele>
						<time>2025-04-28T18:20:41Z</time>
					</trkpt>
					<trkpt lat="43.616730" lon="5.036120">
						<ele>62</ele>
						<time>2025-04-28T18:20:49Z</time>
					</trkpt>
					<trkpt lat="43.616400" lon="5.035830">
						<ele>62</ele>
						<time>2025-04-28T18:20:56Z</time>
					</trkpt>
					<trkpt lat="43.616350" lon="5.035570">
						<ele>63</ele>
						<time>2025-04-28T18:21:00Z</time>
					</trkpt>
					<trkpt lat="43.616210" lon="5.035100">
						<ele>64</ele>
						<time>2025-04-28T18:21:06Z</time>
					</trkpt>
					<trkpt lat="43.615750" lon="5.034120">
						<ele>65</ele>
						<time>2025-04-28T18:21:21Z</time>
					</trkpt>
					<trkpt lat="43.615360" lon="5.033350">
						<ele>68</ele>
						<time>2025-04-28T18:21:33Z</time>
					</trkpt>
					<trkpt lat="43.615100" lon="5.032820">
						<ele>69</ele>
						<time>2025-04-28T18:21:42Z</time>
					</trkpt>
					<trkpt lat="43.614870" lon="5.032540">
						<ele>70</ele>
						<time>2025-04-28T18:21:47Z</time>
					</trkpt>
					<trkpt lat="43.614390" lon="5.032230">
						<ele>73</ele>
						<time>2025-04-28T18:21:57Z</time>
					</trkpt>
					<trkpt lat="43.613680" lon="5.031720">
						<ele>75</ele>
						<time>2025-04-28T18:22:11Z</time>
					</trkpt>
					<trkpt lat="43.613260" lon="5.031430">
						<ele>77</ele>
						<time>2025-04-28T18:22:19Z</time>
					</trkpt>
					<trkpt lat="43.612950" lon="5.031240">
						<ele>77</ele>
						<time>2025-04-28T18:22:25Z</time>
					</trkpt>
					<trkpt lat="43.612540" lon="5.030910">
						<ele>76</ele>
						<time>2025-04-28T18:22:34Z</time>
					</trkpt>
					<trkpt lat="43.611870" lon="5.030400">
						<ele>76</ele>
						<time>2025-04-28T18:22:47Z</time>
					</trkpt>
					<trkpt lat="43.611470" lon="5.030110">
						<ele>76</ele>
						<time>2025-04-28T18:22:55Z</time>
					</trkpt>
					<trkpt lat="43.611150" lon="5.029880">
						<ele>77</ele>
						<time>2025-04-28T18:23:02Z</time>
					</trkpt>
					<trkpt lat="43.611040" lon="5.029790">
						<ele>77</ele>
						<time>2025-04-28T18:23:04Z</time>
					</trkpt>
					<trkpt lat="43.610760" lon="5.029440">
						<ele>76</ele>
						<time>2025-04-28T18:23:11Z</time>
					</trkpt>
					<trkpt lat="43.610640" lon="5.029220">
						<ele>75</ele>
						<time>2025-04-28T18:23:14Z</time>
					</trkpt>
					<trkpt lat="43.610530" lon="5.028820">
						<ele>74</ele>
						<time>2025-04-28T18:23:20Z</time>
					</trkpt>
					<trkpt lat="43.610330" lon="5.028060">
						<ele>71</ele>
						<time>2025-04-28T18:23:30Z</time>
					</trkpt>
					<trkpt lat="43.610110" lon="5.027390">
						<ele>70</ele>
						<time>2025-04-28T18:23:40Z</time>
					</trkpt>
					<trkpt lat="43.609830" lon="5.026660">
						<ele>70</ele>
						<time>2025-04-28T18:23:50Z</time>
					</trkpt>
					<trkpt lat="43.609650" lon="5.026220">
						<ele>70</ele>
						<time>2025-04-28T18:23:57Z</time>
					</trkpt>
					<trkpt lat="43.609550" lon="5.025770">
						<ele>70</ele>
						<time>2025-04-28T18:24:03Z</time>
					</trkpt>
					<trkpt lat="43.609330" lon="5.024640">
						<ele>69</ele>
						<time>2025-04-28T18:24:18Z</time>
					</trkpt>
					<trkpt lat="43.609210" lon="5.023770">
						<ele>68</ele>
						<time>2025-04-28T18:24:29Z</time>
					</trkpt>
					<trkpt lat="43.609170" lon="5.023480">
						<ele>67</ele>
						<time>2025-04-28T18:24:33Z</time>
					</trkpt>
					<trkpt lat="43.609070" lon="5.023130">
						<ele>67</ele>
						<time>2025-04-28T18:24:38Z</time>
					</trkpt>
					<trkpt lat="43.608950" lon="5.022830">
						<ele>67</ele>
						<time>2025-04-28T18:24:42Z</time>
					</trkpt>
					<trkpt lat="43.608850" lon="5.022630">
						<ele>67</ele>
						<time>2025-04-28T18:24:46Z</time>
					</trkpt>
					<trkpt lat="43.608660" lon="5.022390">
						<ele>66</ele>
						<time>2025-04-28T18:24:50Z</time>
					</trkpt>
					<trkpt lat="43.608630" lon="5.022240">
						<ele>66</ele>
						<time>2025-04-28T18:24:52Z</time>
					</trkpt>
					<trkpt lat="43.608860" lon="5.021430">
						<ele>66</ele>
						<time>2025-04-28T18:25:03Z</time>
					</trkpt>
					<trkpt lat="43.609040" lon="5.020780">
						<ele>65</ele>
						<time>2025-04-28T18:25:12Z</time>
					</trkpt>
					<trkpt lat="43.608770" lon="5.020610">
						<ele>64</ele>
						<time>2025-04-28T18:25:18Z</time>
					</trkpt>
					<trkpt lat="43.608330" lon="5.020340">
						<ele>63</ele>
						<time>2025-04-28T18:25:26Z</time>
					</trkpt>
					<trkpt lat="43.607750" lon="5.020050">
						<ele>64</ele>
						<time>2025-04-28T18:25:37Z</time>
					</trkpt>
					<trkpt lat="43.607540" lon="5.019940">
						<ele>64</ele>
						<time>2025-04-28T18:25:41Z</time>
					</trkpt>
					<trkpt lat="43.607250" lon="5.019590">
						<ele>64</ele>
						<time>2025-04-28T18:25:48Z</time>
					</trkpt>
					<trkpt lat="43.606930" lon="5.018800">
						<ele>64</ele>
						<time>2025-04-28T18:26:00Z</time>
					</trkpt>
					<trkpt lat="43.606490" lon="5.017880">
						<ele>64</ele>
						<time>2025-04-28T18:26:14Z</time>
					</trkpt>
					<trkpt lat="43.605870" lon="5.017150">
						<ele>64</ele>
						<time>2025-04-28T18:26:28Z</time>
					</trkpt>
					<trkpt lat="43.605440" lon="5.016670">
						<ele>60</ele>
						<time>2025-04-28T18:26:38Z</time>
					</trkpt>
					<trkpt lat="43.605290" lon="5.016500">
						<ele>60</ele>
						<time>2025-04-28T18:26:42Z</time>
					</trkpt>
					<trkpt lat="43.604870" lon="5.016130">
						<ele>61</ele>
						<time>2025-04-28T18:26:51Z</time>
					</trkpt>
					<trkpt lat="43.604150" lon="5.015560">
						<ele>61</ele>
						<time>2025-04-28T18:27:05Z</time>
					</trkpt>
					<trkpt lat="43.603510" lon="5.015060">
						<ele>61</ele>
						<time>2025-04-28T18:27:18Z</time>
					</trkpt>
					<trkpt lat="43.602930" lon="5.014640">
						<ele>61</ele>
						<time>2025-04-28T18:27:30Z</time>
					</trkpt>
					<trkpt lat="43.602270" lon="5.014080">
						<ele>60</ele>
						<time>2025-04-28T18:27:44Z</time>
					</trkpt>
					<trkpt lat="43.602120" lon="5.013950">
						<ele>60</ele>
						<time>2025-04-28T18:27:47Z</time>
					</trkpt>
					<trkpt lat="43.601950" lon="5.013880">
						<ele>59</ele>
						<time>2025-04-28T18:27:50Z</time>
					</trkpt>
					<trkpt lat="43.601640" lon="5.013770">
						<ele>58</ele>
						<time>2025-04-28T18:27:56Z</time>
					</trkpt>
					<trkpt lat="43.601190" lon="5.013730">
						<ele>57</ele>
						<time>2025-04-28T18:28:04Z</time>
					</trkpt>
					<trkpt lat="43.601000" lon="5.013730">
						<ele>57</ele>
						<time>2025-04-28T18:28:07Z</time>
					</trkpt>
					<trkpt lat="43.600480" lon="5.013870">
						<ele>55</ele>
						<time>2025-04-28T18:28:17Z</time>
					</trkpt>
					<trkpt lat="43.599250" lon="5.014100">
						<ele>53</ele>
						<time>2025-04-28T18:28:39Z</time>
					</trkpt>
					<trkpt lat="43.598770" lon="5.014190">
						<ele>53</ele>
						<time>2025-04-28T18:28:47Z</time>
					</trkpt>
					<trkpt lat="43.598600" lon="5.014190">
						<ele>53</ele>
						<time>2025-04-28T18:28:50Z</time>
					</trkpt>
					<trkpt lat="43.597840" lon="5.014110">
						<ele>53</ele>
						<time>2025-04-28T18:29:04Z</time>
					</trkpt>
					<trkpt lat="43.596930" lon="5.014020">
						<ele>55</ele>
						<time>2025-04-28T18:29:20Z</time>
					</trkpt>
					<trkpt lat="43.596010" lon="5.014170">
						<ele>57</ele>
						<time>2025-04-28T18:29:37Z</time>
					</trkpt>
					<trkpt lat="43.595640" lon="5.014170">
						<ele>57</ele>
						<time>2025-04-28T18:29:43Z</time>
					</trkpt>
					<trkpt lat="43.595220" lon="5.014070">
						<ele>56</ele>
						<time>2025-04-28T18:29:51Z</time>
					</trkpt>
					<trkpt lat="43.594740" lon="5.013860">
						<ele>55</ele>
						<time>2025-04-28T18:30:00Z</time>
					</trkpt>
					<trkpt lat="43.594130" lon="5.013590">
						<ele>53</ele>
						<time>2025-04-28T18:30:11Z</time>
					</trkpt>
					<trkpt lat="43.593320" lon="5.013240">
						<ele>52</ele>
						<time>2025-04-28T18:30:26Z</time>
					</trkpt>
					<trkpt lat="43.593200" lon="5.013190">
						<ele>52</ele>
						<time>2025-04-28T18:30:28Z</time>
					</trkpt>
					<trkpt lat="43.592720" lon="5.013160">
						<ele>51</ele>
						<time>2025-04-28T18:30:37Z</time>
					</trkpt>
					<trkpt lat="43.592400" lon="5.013120">
						<ele>50</ele>
						<time>2025-04-28T18:30:43Z</time>
					</trkpt>
					<trkpt lat="43.592340" lon="5.013040">
						<ele>50</ele>
						<time>2025-04-28T18:30:44Z</time>
					</trkpt>
					<trkpt lat="43.592280" lon="5.012980">
						<ele>50</ele>
						<time>2025-04-28T18:30:46Z</time>
					</trkpt>
					<trkpt lat="43.592190" lon="5.012990">
						<ele>50</ele>
						<time>2025-04-28T18:30:47Z</time>
					</trkpt>
					<trkpt lat="43.592120" lon="5.013090">
						<ele>50</ele>
						<time>2025-04-28T18:30:49Z</time>
					</trkpt>
					<trkpt lat="43.592000" lon="5.013180">
						<ele>50</ele>
						<time>2025-04-28T18:30:51Z</time>
					</trkpt>
					<trkpt lat="43.591700" lon="5.013260">
						<ele>49</ele>
						<time>2025-04-28T18:30:57Z</time>
					</trkpt>
					<trkpt lat="43.591290" lon="5.013380">
						<ele>49</ele>
						<time>2025-04-28T18:31:04Z</time>
					</trkpt>
					<trkpt lat="43.591070" lon="5.013460">
						<ele>50</ele>
						<time>2025-04-28T18:31:08Z</time>
					</trkpt>
					<trkpt lat="43.590520" lon="5.013670">
						<ele>49</ele>
						<time>2025-04-28T18:31:18Z</time>
					</trkpt>
					<trkpt lat="43.590240" lon="5.013790">
						<ele>49</ele>
						<time>2025-04-28T18:31:24Z</time>
					</trkpt>
					<trkpt lat="43.589890" lon="5.013870">
						<ele>48</ele>
						<time>2025-04-28T18:31:30Z</time>
					</trkpt>
					<trkpt lat="43.589300" lon="5.013970">
						<ele>49</ele>
						<time>2025-04-28T18:31:41Z</time>
					</trkpt>
					<trkpt lat="43.588520" lon="5.013990">
						<ele>49</ele>
						<time>2025-04-28T18:31:54Z</time>
					</trkpt>
					<trkpt lat="43.588360" lon="5.013990">
						<ele>49</ele>
						<time>2025-04-28T18:31:57Z</time>
					</trkpt>
					<trkpt lat="43.587820" lon="5.014040">
						<ele>50</ele>
						<time>2025-04-28T18:32:07Z</time>
					</trkpt>
					<trkpt lat="43.587640" lon="5.014060">
						<ele>50</ele>
						<time>2025-04-28T18:32:10Z</time>
					</trkpt>
					<trkpt lat="43.587480" lon="5.014000">
						<ele>50</ele>
						<time>2025-04-28T18:32:13Z</time>
					</trkpt>
					<trkpt lat="43.587350" lon="5.013860">
						<ele>50</ele>
						<time>2025-04-28T18:32:16Z</time>
					</trkpt>
					<trkpt lat="43.587240" lon="5.013750">
						<ele>50</ele>
						<time>2025-04-28T18:32:18Z</time>
					</trkpt>
					<trkpt lat="43.587060" lon="5.013620">
						<ele>50</ele>
						<time>2025-04-28T18:32:22Z</time>
					</trkpt>
					<trkpt lat="43.586940" lon="5.013570">
						<ele>50</ele>
						<time>2025-04-28T18:32:24Z</time>
					</trkpt>
					<trkpt lat="43.586710" lon="5.013550">
						<ele>50</ele>
						<time>2025-04-28T18:32:28Z</time>
					</trkpt>
					<trkpt lat="43.585970" lon="5.013480">
						<ele>49</ele>
						<time>2025-04-28T18:32:42Z</time>
					</trkpt>
					<trkpt lat="43.585430" lon="5.013410">
						<ele>50</ele>
						<time>2025-04-28T18:32:51Z</time>
					</trkpt>
					<trkpt lat="43.585150" lon="5.013330">
						<ele>50</ele>
						<time>2025-04-28T18:32:56Z</time>
					</trkpt>
					<trkpt lat="43.584160" lon="5.013160">
						<ele>52</ele>
						<time>2025-04-28T18:33:14Z</time>
					</trkpt>
					<trkpt lat="43.583730" lon="5.013090">
						<ele>53</ele>
						<time>2025-04-28T18:33:22Z</time>
					</trkpt>
					<trkpt lat="43.583390" lon="5.013140">
						<ele>54</ele>
						<time>2025-04-28T18:33:28Z</time>
					</trkpt>
					<trkpt lat="43.583180" lon="5.013180">
						<ele>54</ele>
						<time>2025-04-28T18:33:32Z</time>
					</trkpt>
					<trkpt lat="43.583040" lon="5.013300">
						<ele>54</ele>
						<time>2025-04-28T18:33:35Z</time>
					</trkpt>
					<trkpt lat="43.582820" lon="5.013590">
						<ele>55</ele>
						<time>2025-04-28T18:33:40Z</time>
					</trkpt>
					<trkpt lat="43.582620" lon="5.013850">
						<ele>55</ele>
						<time>2025-04-28T18:33:45Z</time>
					</trkpt>
					<trkpt lat="43.582420" lon="5.014030">
						<ele>56</ele>
						<time>2025-04-28T18:33:49Z</time>
					</trkpt>
					<trkpt lat="43.582160" lon="5.014080">
						<ele>57</ele>
						<time>2025-04-28T18:33:54Z</time>
					</trkpt>
					<trkpt lat="43.581970" lon="5.014080">
						<ele>57</ele>
						<time>2025-04-28T18:33:57Z</time>
					</trkpt>
					<trkpt lat="43.581950" lon="5.013900">
						<ele>56</ele>
						<time>2025-04-28T18:34:00Z</time>
					</trkpt>
					<trkpt lat="43.581840" lon="5.013760">
						<ele>56</ele>
						<time>2025-04-28T18:34:02Z</time>
					</trkpt>
					<trkpt lat="43.581720" lon="5.013730">
						<ele>56</ele>
						<time>2025-04-28T18:34:04Z</time>
					</trkpt>
					<trkpt lat="43.581150" lon="5.013660">
						<ele>55</ele>
						<time>2025-04-28T18:34:15Z</time>
					</trkpt>
					<trkpt lat="43.580940" lon="5.013610">
						<ele>54</ele>
						<time>2025-04-28T18:34:18Z</time>
					</trkpt>
					<trkpt lat="43.580760" lon="5.013610">
						<ele>54</ele>
						<time>2025-04-28T18:34:22Z</time>
					</trkpt>
					<trkpt lat="43.580660" lon="5.013640">
						<ele>54</ele>
						<time>2025-04-28T18:34:23Z</time>
					</trkpt>
					<trkpt lat="43.580590" lon="5.013660">
						<ele>54</ele>
						<time>2025-04-28T18:34:25Z</time>
					</trkpt>
					<trkpt lat="43.579880" lon="5.014150">
						<ele>54</ele>
						<time>2025-04-28T18:34:39Z</time>
					</trkpt>
					<trkpt lat="43.579610" lon="5.014360">
						<ele>52</ele>
						<time>2025-04-28T18:34:44Z</time>
					</trkpt>
					<trkpt lat="43.579130" lon="5.014620">
						<ele>49</ele>
						<time>2025-04-28T18:34:53Z</time>
					</trkpt>
					<trkpt lat="43.579090" lon="5.014440">
						<ele>49</ele>
						<time>2025-04-28T18:34:56Z</time>
					</trkpt>
					<trkpt lat="43.579100" lon="5.014270">
						<ele>49</ele>
						<time>2025-04-28T18:34:58Z</time>
					</trkpt>
					<trkpt lat="43.579380" lon="5.013250">
						<ele>50</ele>
						<time>2025-04-28T18:35:12Z</time>
					</trkpt>
					<trkpt lat="43.579340" lon="5.013120">
						<ele>49</ele>
						<time>2025-04-28T18:35:14Z</time>
					</trkpt>
					<trkpt lat="43.579190" lon="5.012870">
						<ele>49</ele>
						<time>2025-04-28T18:35:18Z</time>
					</trkpt>
					<trkpt lat="43.579140" lon="5.012710">
						<ele>48</ele>
						<time>2025-04-28T18:35:20Z</time>
					</trkpt>
					<trkpt lat="43.579280" lon="5.012480">
						<ele>48</ele>
						<time>2025-04-28T18:35:24Z</time>
					</trkpt>
					<trkpt lat="43.579650" lon="5.012110">
						<ele>50</ele>
						<time>2025-04-28T18:35:32Z</time>
					</trkpt>
					<trkpt lat="43.579950" lon="5.011760">
						<ele>51</ele>
						<time>2025-04-28T18:35:39Z</time>
					</trkpt>
					<trkpt lat="43.580200" lon="5.011400">
						<ele>51</ele>
						<time>2025-04-28T18:35:46Z</time>
					</trkpt>
					<trkpt lat="43.580480" lon="5.010900">
						<ele>52</ele>
						<time>2025-04-28T18:35:54Z</time>
					</trkpt>
					<trkpt lat="43.580780" lon="5.010350">
						<ele>53</ele>
						<time>2025-04-28T18:36:03Z</time>
					</trkpt>
					<trkpt lat="43.581020" lon="5.009640">
						<ele>53</ele>
						<time>2025-04-28T18:36:13Z</time>
					</trkpt>
					<trkpt lat="43.581160" lon="5.008980">
						<ele>52</ele>
						<time>2025-04-28T18:36:22Z</time>
					</trkpt>
					<trkpt lat="43.581260" lon="5.008400">
						<ele>52</ele>
						<time>2025-04-28T18:36:29Z</time>
					</trkpt>
					<trkpt lat="43.581310" lon="5.007430">
						<ele>52</ele>
						<time>2025-04-28T18:36:42Z</time>
					</trkpt>
					<trkpt lat="43.581420" lon="5.006970">
						<ele>51</ele>
						<time>2025-04-28T18:36:48Z</time>
					</trkpt>
					<trkpt lat="43.581410" lon="5.006720">
						<ele>51</ele>
						<time>2025-04-28T18:36:51Z</time>
					</trkpt>
					<trkpt lat="43.581330" lon="5.006600">
						<ele>51</ele>
						<time>2025-04-28T18:36:54Z</time>
					</trkpt>
					<trkpt lat="43.581200" lon="5.006760">
						<ele>51</ele>
						<time>2025-04-28T18:36:57Z</time>
					</trkpt>
					<trkpt lat="43.581050" lon="5.006950">
						<ele>51</ele>
						<time>2025-04-28T18:37:00Z</time>
					</trkpt>
					<trkpt lat="43.580760" lon="5.007240">
						<ele>52</ele>
						<time>2025-04-28T18:37:07Z</time>
					</trkpt>
					<trkpt lat="43.580340" lon="5.007630">
						<ele>53</ele>
						<time>2025-04-28T18:37:16Z</time>
					</trkpt>
					<trkpt lat="43.580230" lon="5.007780">
						<ele>53</ele>
						<time>2025-04-28T18:37:18Z</time>
					</trkpt>
					<trkpt lat="43.580070" lon="5.008240">
						<ele>54</ele>
						<time>2025-04-28T18:37:25Z</time>
					</trkpt>
					<trkpt lat="43.579980" lon="5.008470">
						<ele>54</ele>
						<time>2025-04-28T18:37:28Z</time>
					</trkpt>
					<trkpt lat="43.579940" lon="5.008530">
						<ele>54</ele>
						<time>2025-04-28T18:37:29Z</time>
					</trkpt>
					<trkpt lat="43.579730" lon="5.008430">
						<ele>54</ele>
						<time>2025-04-28T18:37:33Z</time>
					</trkpt>
					<trkpt lat="43.579300" lon="5.009710">
						<ele>53</ele>
						<time>2025-04-28T18:37:52Z</time>
					</trkpt>
					<trkpt lat="43.579230" lon="5.009780">
						<ele>52</ele>
						<time>2025-04-28T18:37:53Z</time>
					</trkpt>
					<trkpt lat="43.579200" lon="5.009640">
						<ele>53</ele>
						<time>2025-04-28T18:37:55Z</time>
					</trkpt>
					<trkpt lat="43.578980" lon="5.009330">
						<ele>54</ele>
						<time>2025-04-28T18:38:01Z</time>
					</trkpt>
					<trkpt lat="43.578670" lon="5.009100">
						<ele>55</ele>
						<time>2025-04-28T18:38:07Z</time>
					</trkpt>
					<trkpt lat="43.578450" lon="5.008920">
						<ele>55</ele>
						<time>2025-04-28T18:38:11Z</time>
					</trkpt>
					<trkpt lat="43.578280" lon="5.008870">
						<ele>56</ele>
						<time>2025-04-28T18:38:14Z</time>
					</trkpt>
					<trkpt lat="43.578150" lon="5.008630">
						<ele>56</ele>
						<time>2025-04-28T18:38:18Z</time>
					</trkpt>
					<trkpt lat="43.578210" lon="5.008460">
						<ele>55</ele>
						<time>2025-04-28T18:38:21Z</time>
					</trkpt>
					<trkpt lat="43.578150" lon="5.008090">
						<ele>56</ele>
						<time>2025-04-28T18:38:26Z</time>
					</trkpt>
					<trkpt lat="43.578100" lon="5.007980">
						<ele>56</ele>
						<time>2025-04-28T18:38:27Z</time>
					</trkpt>
					<trkpt lat="43.577990" lon="5.007900">
						<ele>57</ele>
						<time>2025-04-28T18:38:30Z</time>
					</trkpt>
					<trkpt lat="43.577880" lon="5.007260">
						<ele>57</ele>
						<time>2025-04-28T18:38:38Z</time>
					</trkpt>
					<trkpt lat="43.577500" lon="5.007400">
						<ele>59</ele>
						<time>2025-04-28T18:38:45Z</time>
					</trkpt>
					<trkpt lat="43.577130" lon="5.007520">
						<ele>60</ele>
						<time>2025-04-28T18:38:52Z</time>
					</trkpt>
					<trkpt lat="43.576840" lon="5.007560">
						<ele>60</ele>
						<time>2025-04-28T18:38:57Z</time>
					</trkpt>
					<trkpt lat="43.576480" lon="5.007550">
						<ele>61</ele>
						<time>2025-04-28T18:39:03Z</time>
					</trkpt>
					<trkpt lat="43.575420" lon="5.007470">
						<ele>63</ele>
						<time>2025-04-28T18:39:22Z</time>
					</trkpt>
					<trkpt lat="43.574820" lon="5.007300">
						<ele>64</ele>
						<time>2025-04-28T18:39:33Z</time>
					</trkpt>
					<trkpt lat="43.574540" lon="5.007120">
						<ele>65</ele>
						<time>2025-04-28T18:39:39Z</time>
					</trkpt>
					<trkpt lat="43.574200" lon="5.006820">
						<ele>66</ele>
						<time>2025-04-28T18:39:46Z</time>
					</trkpt>
					<trkpt lat="43.574030" lon="5.006660">
						<ele>66</ele>
						<time>2025-04-28T18:39:49Z</time>
					</trkpt>
					<trkpt lat="43.573790" lon="5.006310">
						<ele>67</ele>
						<time>2025-04-28T18:39:56Z</time>
					</trkpt>
					<trkpt lat="43.573490" lon="5.005780">
						<ele>68</ele>
						<time>2025-04-28T18:40:04Z</time>
					</trkpt>
					<trkpt lat="43.573120" lon="5.004980">
						<ele>66</ele>
						<time>2025-04-28T18:40:17Z</time>
					</trkpt>
					<trkpt lat="43.573090" lon="5.004660">
						<ele>66</ele>
						<time>2025-04-28T18:40:21Z</time>
					</trkpt>
					<trkpt lat="43.573260" lon="5.004300">
						<ele>66</ele>
						<time>2025-04-28T18:40:26Z</time>
					</trkpt>
					<trkpt lat="43.573780" lon="5.003100">
						<ele>62</ele>
						<time>2025-04-28T18:40:44Z</time>
					</trkpt>
					<trkpt lat="43.574250" lon="5.002120">
						<ele>58</ele>
						<time>2025-04-28T18:40:59Z</time>
					</trkpt>
					<trkpt lat="43.574690" lon="5.001180">
						<ele>55</ele>
						<time>2025-04-28T18:41:14Z</time>
					</trkpt>
					<trkpt lat="43.575320" lon="4.999810">
						<ele>54</ele>
						<time>2025-04-28T18:41:35Z</time>
					</trkpt>
					<trkpt lat="43.575350" lon="4.999750">
						<ele>54</ele>
						<time>2025-04-28T18:41:36Z</time>
					</trkpt>
					<trkpt lat="43.575500" lon="4.999670">
						<ele>55</ele>
						<time>2025-04-28T18:41:39Z</time>
					</trkpt>
					<trkpt lat="43.575540" lon="4.999670">
						<ele>55</ele>
						<time>2025-04-28T18:41:39Z</time>
					</trkpt>
					<trkpt lat="43.575620" lon="4.999640">
						<ele>55</ele>
						<time>2025-04-28T18:41:41Z</time>
					</trkpt>
					<trkpt lat="43.575670" lon="4.999550">
						<ele>54</ele>
						<time>2025-04-28T18:41:42Z</time>
					</trkpt>
					<trkpt lat="43.575680" lon="4.999450">
						<ele>54</ele>
						<time>2025-04-28T18:41:44Z</time>
					</trkpt>
					<trkpt lat="43.575650" lon="4.999350">
						<ele>54</ele>
						<time>2025-04-28T18:41:45Z</time>
					</trkpt>
					<trkpt lat="43.575670" lon="4.999140">
						<ele>54</ele>
						<time>2025-04-28T18:41:48Z</time>
					</trkpt>
					<trkpt lat="43.575820" lon="4.998790">
						<ele>53</ele>
						<time>2025-04-28T18:41:53Z</time>
					</trkpt>
					<trkpt lat="43.575890" lon="4.998760">
						<ele>53</ele>
						<time>2025-04-28T18:41:54Z</time>
					</trkpt>
					<trkpt lat="43.576120" lon="4.998830">
						<ele>53</ele>
						<time>2025-04-28T18:41:58Z</time>
					</trkpt>
					<trkpt lat="43.576170" lon="4.998860">
						<ele>53</ele>
						<time>2025-04-28T18:41:59Z</time>
					</trkpt>
					<trkpt lat="43.576240" lon="4.998940">
						<ele>53</ele>
						<time>2025-04-28T18:42:01Z</time>
					</trkpt>
					<trkpt lat="43.576580" lon="4.998460">
						<ele>51</ele>
						<time>2025-04-28T18:42:10Z</time>
					</trkpt>
					<trkpt lat="43.576550" lon="4.998250">
						<ele>51</ele>
						<time>2025-04-28T18:42:12Z</time>
					</trkpt>
					<trkpt lat="43.576530" lon="4.998190">
						<ele>51</ele>
						<time>2025-04-28T18:42:13Z</time>
					</trkpt>
					<trkpt lat="43.576490" lon="4.998130">
						<ele>51</ele>
						<time>2025-04-28T18:42:14Z</time>
					</trkpt>
					<trkpt lat="43.576330" lon="4.997890">
						<ele>51</ele>
						<time>2025-04-28T18:42:19Z</time>
					</trkpt>
					<trkpt lat="43.576300" lon="4.997760">
						<ele>50</ele>
						<time>2025-04-28T18:42:20Z</time>
					</trkpt>
					<trkpt lat="43.576480" lon="4.997350">
						<ele>50</ele>
						<time>2025-04-28T18:42:26Z</time>
					</trkpt>
					<trkpt lat="43.576580" lon="4.997260">
						<ele>50</ele>
						<time>2025-04-28T18:42:29Z</time>
					</trkpt>
					<trkpt lat="43.576620" lon="4.997250">
						<ele>50</ele>
						<time>2025-04-28T18:42:29Z</time>
					</trkpt>
					<trkpt lat="43.576680" lon="4.997200">
						<ele>50</ele>
						<time>2025-04-28T18:42:31Z</time>
					</trkpt>
					<trkpt lat="43.576710" lon="4.997070">
						<ele>50</ele>
						<time>2025-04-28T18:42:32Z</time>
					</trkpt>
					<trkpt lat="43.576840" lon="4.996710">
						<ele>51</ele>
						<time>2025-04-28T18:42:38Z</time>
					</trkpt>
					<trkpt lat="43.577080" lon="4.996040">
						<ele>49</ele>
						<time>2025-04-28T18:42:47Z</time>
					</trkpt>
					<trkpt lat="43.577280" lon="4.995220">
						<ele>48</ele>
						<time>2025-04-28T18:42:58Z</time>
					</trkpt>
					<trkpt lat="43.577380" lon="4.994370">
						<ele>49</ele>
						<time>2025-04-28T18:43:09Z</time>
					</trkpt>
					<trkpt lat="43.577120" lon="4.994190">
						<ele>49</ele>
						<time>2025-04-28T18:43:15Z</time>
					</trkpt>
					<trkpt lat="43.576980" lon="4.993990">
						<ele>49</ele>
						<time>2025-04-28T18:43:18Z</time>
					</trkpt>
					<trkpt lat="43.576740" lon="4.993800">
						<ele>48</ele>
						<time>2025-04-28T18:43:23Z</time>
					</trkpt>
					<trkpt lat="43.576470" lon="4.993640">
						<ele>49</ele>
						<time>2025-04-28T18:43:28Z</time>
					</trkpt>
					<trkpt lat="43.576310" lon="4.993620">
						<ele>49</ele>
						<time>2025-04-28T18:43:31Z</time>
					</trkpt>
					<trkpt lat="43.576070" lon="4.993440">
						<ele>48</ele>
						<time>2025-04-28T18:43:36Z</time>
					</trkpt>
					<trkpt lat="43.576040" lon="4.993360">
						<ele>48</ele>
						<time>2025-04-28T18:43:37Z</time>
					</trkpt>
					<trkpt lat="43.575750" lon="4.993610">
						<ele>48</ele>
						<time>2025-04-28T18:43:43Z</time>
					</trkpt>
					<trkpt lat="43.575410" lon="4.993980">
						<ele>49</ele>
						<time>2025-04-28T18:43:51Z</time>
					</trkpt>
					<trkpt lat="43.575260" lon="4.994060">
						<ele>49</ele>
						<time>2025-04-28T18:43:54Z</time>
					</trkpt>
					<trkpt lat="43.575030" lon="4.994000">
						<ele>49</ele>
						<time>2025-04-28T18:43:58Z</time>
					</trkpt>
					<trkpt lat="43.574870" lon="4.993710">
						<ele>49</ele>
						<time>2025-04-28T18:44:03Z</time>
					</trkpt>
					<trkpt lat="43.574230" lon="4.992810">
						<ele>49</ele>
						<time>2025-04-28T18:44:19Z</time>
					</trkpt>
					<trkpt lat="43.573950" lon="4.992470">
						<ele>49</ele>
						<time>2025-04-28T18:44:26Z</time>
					</trkpt>
					<trkpt lat="43.573300" lon="4.991760">
						<ele>47</ele>
						<time>2025-04-28T18:44:40Z</time>
					</trkpt>
					<trkpt lat="43.572970" lon="4.991480">
						<ele>48</ele>
						<time>2025-04-28T18:44:47Z</time>
					</trkpt>
					<trkpt lat="43.571300" lon="4.989930">
						<ele>50</ele>
						<time>2025-04-28T18:45:23Z</time>
					</trkpt>
					<trkpt lat="43.570770" lon="4.989320">
						<ele>50</ele>
						<time>2025-04-28T18:45:35Z</time>
					</trkpt>
					<trkpt lat="43.570400" lon="4.988820">
						<ele>49</ele>
						<time>2025-04-28T18:45:45Z</time>
					</trkpt>
					<trkpt lat="43.570090" lon="4.988320">
						<ele>49</ele>
						<time>2025-04-28T18:45:53Z</time>
					</trkpt>
					<trkpt lat="43.569740" lon="4.987950">
						<ele>47</ele>
						<time>2025-04-28T18:46:01Z</time>
					</trkpt>
					<trkpt lat="43.569430" lon="4.987710">
						<ele>47</ele>
						<time>2025-04-28T18:46:07Z</time>
					</trkpt>
					<trkpt lat="43.569040" lon="4.987530">
						<ele>47</ele>
						<time>2025-04-28T18:46:15Z</time>
					</trkpt>
					<trkpt lat="43.568890" lon="4.987480">
						<ele>47</ele>
						<time>2025-04-28T18:46:17Z</time>
					</trkpt>
					<trkpt lat="43.568690" lon="4.987380">
						<ele>47</ele>
						<time>2025-04-28T18:46:21Z</time>
					</trkpt>
					<trkpt lat="43.568270" lon="4.986950">
						<ele>48</ele>
						<time>2025-04-28T18:46:30Z</time>
					</trkpt>
					<trkpt lat="43.567210" lon="4.986200">
						<ele>47</ele>
						<time>2025-04-28T18:46:52Z</time>
					</trkpt>
					<trkpt lat="43.566720" lon="4.985820">
						<ele>48</ele>
						<time>2025-04-28T18:47:02Z</time>
					</trkpt>
					<trkpt lat="43.565910" lon="4.985320">
						<ele>46</ele>
						<time>2025-04-28T18:47:17Z</time>
					</trkpt>
					<trkpt lat="43.564130" lon="4.984390">
						<ele>45</ele>
						<time>2025-04-28T18:47:51Z</time>
					</trkpt>
					<trkpt lat="43.563710" lon="4.984140">
						<ele>46</ele>
						<time>2025-04-28T18:47:59Z</time>
					</trkpt>
					<trkpt lat="43.563460" lon="4.983950">
						<ele>46</ele>
						<time>2025-04-28T18:48:04Z</time>
					</trkpt>
					<trkpt lat="43.563130" lon="4.983590">
						<ele>45</ele>
						<time>2025-04-28T18:48:12Z</time>
					</trkpt>
					<trkpt lat="43.562640" lon="4.982930">
						<ele>45</ele>
						<time>2025-04-28T18:48:24Z</time>
					</trkpt>
					<trkpt lat="43.562380" lon="4.982540">
						<ele>45</ele>
						<time>2025-04-28T18:48:31Z</time>
					</trkpt>
					<trkpt lat="43.562140" lon="4.982130">
						<ele>45</ele>
						<time>2025-04-28T18:48:38Z</time>
					</trkpt>
					<trkpt lat="43.560530" lon="4.979070">
						<ele>43</ele>
						<time>2025-04-28T18:49:26Z</time>
					</trkpt>
					<trkpt lat="43.559710" lon="4.977610">
						<ele>44</ele>
						<time>2025-04-28T18:49:50Z</time>
					</trkpt>
					<trkpt lat="43.558960" lon="4.976450">
						<ele>44</ele>
						<time>2025-04-28T18:50:10Z</time>
					</trkpt>
					<trkpt lat="43.558670" lon="4.976080">
						<ele>42</ele>
						<time>2025-04-28T18:50:17Z</time>
					</trkpt>
					<trkpt lat="43.558440" lon="4.975880">
						<ele>41</ele>
						<time>2025-04-28T18:50:22Z</time>
					</trkpt>
					<trkpt lat="43.558240" lon="4.975790">
						<ele>41</ele>
						<time>2025-04-28T18:50:26Z</time>
					</trkpt>
					<trkpt lat="43.557900" lon="4.975710">
						<ele>42</ele>
						<time>2025-04-28T18:50:32Z</time>
					</trkpt>
					<trkpt lat="43.554670" lon="4.975230">
						<ele>40</ele>
						<time>2025-04-28T18:51:30Z</time>
					</trkpt>
					<trkpt lat="43.553930" lon="4.975080">
						<ele>40</ele>
						<time>2025-04-28T18:51:43Z</time>
					</trkpt>
					<trkpt lat="43.553590" lon="4.974960">
						<ele>41</ele>
						<time>2025-04-28T18:51:49Z</time>
					</trkpt>
					<trkpt lat="43.549950" lon="4.973340">
						<ele>39</ele>
						<time>2025-04-28T18:52:57Z</time>
					</trkpt>
					<trkpt lat="43.548830" lon="4.974620">
						<ele>42</ele>
						<time>2025-04-28T18:53:23Z</time>
					</trkpt>
					<trkpt lat="43.547790" lon="4.975770">
						<ele>46</ele>
						<time>2025-04-28T18:53:47Z</time>
					</trkpt>
					<trkpt lat="43.546280" lon="4.976920">
						<ele>49</ele>
						<time>2025-04-28T18:54:18Z</time>
					</trkpt>
					<trkpt lat="43.546200" lon="4.977210">
						<ele>47</ele>
						<time>2025-04-28T18:54:22Z</time>
					</trkpt>
					<trkpt lat="43.546150" lon="4.977560">
						<ele>44</ele>
						<time>2025-04-28T18:54:26Z</time>
					</trkpt>
					<trkpt lat="43.545630" lon="4.978220">
						<ele>42</ele>
						<time>2025-04-28T18:54:39Z</time>
					</trkpt>
					<trkpt lat="43.544780" lon="4.978820">
						<ele>45</ele>
						<time>2025-04-28T18:54:56Z</time>
					</trkpt>
					<trkpt lat="43.543980" lon="4.979250">
						<ele>47</ele>
						<time>2025-04-28T18:55:11Z</time>
					</trkpt>
					<trkpt lat="43.542400" lon="4.980970">
						<ele>45</ele>
						<time>2025-04-28T18:55:47Z</time>
					</trkpt>
					<trkpt lat="43.541110" lon="4.982090">
						<ele>45</ele>
						<time>2025-04-28T18:56:14Z</time>
					</trkpt>
					<trkpt lat="43.540340" lon="4.982650">
						<ele>38</ele>
						<time>2025-04-28T18:56:30Z</time>
					</trkpt>
					<trkpt lat="43.540030" lon="4.983020">
						<ele>34</ele>
						<time>2025-04-28T18:56:37Z</time>
					</trkpt>
					<trkpt lat="43.539660" lon="4.983180">
						<ele>31</ele>
						<time>2025-04-28T18:56:44Z</time>
					</trkpt>
					<trkpt lat="43.539220" lon="4.983680">
						<ele>23</ele>
						<time>2025-04-28T18:56:54Z</time>
					</trkpt>
					<trkpt lat="43.538510" lon="4.984070">
						<ele>16</ele>
						<time>2025-04-28T18:57:08Z</time>
					</trkpt>
					<trkpt lat="43.537820" lon="4.984230">
						<ele>12</ele>
						<time>2025-04-28T18:57:20Z</time>
					</trkpt>
					<trkpt lat="43.537090" lon="4.984130">
						<ele>12</ele>
						<time>2025-04-28T18:57:33Z</time>
					</trkpt>
					<trkpt lat="43.536230" lon="4.984020">
						<ele>11</ele>
						<time>2025-04-28T18:57:48Z</time>
					</trkpt>
					<trkpt lat="43.534790" lon="4.984420">
						<ele>5</ele>
						<time>2025-04-28T18:58:15Z</time>
					</trkpt>
					<trkpt lat="43.534670" lon="4.984370">
						<ele>5</ele>
						<time>2025-04-28T18:58:17Z</time>
					</trkpt>
					<trkpt lat="43.534370" lon="4.984060">
						<ele>6</ele>
						<time>2025-04-28T18:58:23Z</time>
					</trkpt>
					<trkpt lat="43.534060" lon="4.983860">
						<ele>7</ele>
						<time>2025-04-28T18:58:30Z</time>
					</trkpt>
					<trkpt lat="43.533570" lon="4.983580">
						<ele>8</ele>
						<time>2025-04-28T18:58:39Z</time>
					</trkpt>
					<trkpt lat="43.532870" lon="4.983090">
						<ele>8</ele>
						<time>2025-04-28T18:58:53Z</time>
					</trkpt>
					<trkpt lat="43.532520" lon="4.982810">
						<ele>8</ele>
						<time>2025-04-28T18:59:00Z</time>
					</trkpt>
					<trkpt lat="43.532230" lon="4.982460">
						<ele>9</ele>
						<time>2025-04-28T18:59:07Z</time>
					</trkpt>
					<trkpt lat="43.532090" lon="4.982200">
						<ele>10</ele>
						<time>2025-04-28T18:59:11Z</time>
					</trkpt>
					<trkpt lat="43.531990" lon="4.981930">
						<ele>12</ele>
						<time>2025-04-28T18:59:15Z</time>
					</trkpt>
					<trkpt lat="43.531890" lon="4.981720">
						<ele>11</ele>
						<time>2025-04-28T18:59:18Z</time>
					</trkpt>
					<trkpt lat="43.531770" lon="4.981590">
						<ele>10</ele>
						<time>2025-04-28T18:59:21Z</time>
					</trkpt>
					<trkpt lat="43.531150" lon="4.981240">
						<ele>8</ele>
						<time>2025-04-28T18:59:33Z</time>
					</trkpt>
					<trkpt lat="43.530870" lon="4.980990">
						<ele>7</ele>
						<time>2025-04-28T18:59:39Z</time>
					</trkpt>
					<trkpt lat="43.530640" lon="4.980740">
						<ele>8</ele>
						<time>2025-04-28T18:59:44Z</time>
					</trkpt>
					<trkpt lat="43.530230" lon="4.980160">
						<ele>9</ele>
						<time>2025-04-28T18:59:55Z</time>
					</trkpt>
					<trkpt lat="43.528340" lon="4.978710">
						<ele>8</ele>
						<time>2025-04-28T19:00:33Z</time>
					</trkpt>
					<trkpt lat="43.528140" lon="4.978630">
						<ele>9</ele>
						<time>2025-04-28T19:00:37Z</time>
					</trkpt>
					<trkpt lat="43.527420" lon="4.978590">
						<ele>11</ele>
						<time>2025-04-28T19:00:50Z</time>
					</trkpt>
					<trkpt lat="43.527270" lon="4.978600">
						<ele>12</ele>
						<time>2025-04-28T19:00:52Z</time>
					</trkpt>
					<trkpt lat="43.526610" lon="4.978970">
						<ele>11</ele>
						<time>2025-04-28T19:01:05Z</time>
					</trkpt>
					<trkpt lat="43.524830" lon="4.979620">
						<ele>14</ele>
						<time>2025-04-28T19:01:38Z</time>
					</trkpt>
					<trkpt lat="43.522290" lon="4.980520">
						<ele>26</ele>
						<time>2025-04-28T19:02:24Z</time>
					</trkpt>
					<trkpt lat="43.522110" lon="4.980530">
						<ele>26</ele>
						<time>2025-04-28T19:02:28Z</time>
					</trkpt>
					<trkpt lat="43.521980" lon="4.980500">
						<ele>26</ele>
						<time>2025-04-28T19:02:30Z</time>
					</trkpt>
					<trkpt lat="43.521980" lon="4.980500">
						<ele>26</ele>
						<time>2025-04-28T19:02:30Z</time>
					</trkpt>
					<trkpt lat="43.521970" lon="4.980600">
						<ele>26</ele>
						<time>2025-04-28T19:02:31Z</time>
					</trkpt>
					<trkpt lat="43.521230" lon="4.981820">
						<ele>22</ele>
						<time>2025-04-28T19:02:52Z</time>
					</trkpt>
					<trkpt lat="43.521090" lon="4.982020">
						<ele>22</ele>
						<time>2025-04-28T19:02:55Z</time>
					</trkpt>
					<trkpt lat="43.520990" lon="4.982120">
						<ele>21</ele>
						<time>2025-04-28T19:02:58Z</time>
					</trkpt>
					<trkpt lat="43.520760" lon="4.982450">
						<ele>20</ele>
						<time>2025-04-28T19:03:03Z</time>
					</trkpt>
					<trkpt lat="43.520340" lon="4.983000">
						<ele>19</ele>
						<time>2025-04-28T19:03:14Z</time>
					</trkpt>
					<trkpt lat="43.520220" lon="4.983190">
						<ele>19</ele>
						<time>2025-04-28T19:03:17Z</time>
					</trkpt>
					<trkpt lat="43.520140" lon="4.983520">
						<ele>18</ele>
						<time>2025-04-28T19:03:21Z</time>
					</trkpt>
					<trkpt lat="43.520070" lon="4.983760">
						<ele>18</ele>
						<time>2025-04-28T19:03:25Z</time>
					</trkpt>
					<trkpt lat="43.520030" lon="4.983830">
						<ele>18</ele>
						<time>2025-04-28T19:03:26Z</time>
					</trkpt>
					<trkpt lat="43.519830" lon="4.984610">
						<ele>18</ele>
						<time>2025-04-28T19:03:37Z</time>
					</trkpt>
					<trkpt lat="43.519680" lon="4.984620">
						<ele>19</ele>
						<time>2025-04-28T19:03:39Z</time>
					</trkpt>
					<trkpt lat="43.519400" lon="4.984710">
						<ele>21</ele>
						<time>2025-04-28T19:03:44Z</time>
					</trkpt>
					<trkpt lat="43.519110" lon="4.984890">
						<ele>22</ele>
						<time>2025-04-28T19:03:50Z</time>
					</trkpt>
					<trkpt lat="43.518290" lon="4.985040">
						<ele>23</ele>
						<time>2025-04-28T19:04:05Z</time>
					</trkpt>
					<trkpt lat="43.517790" lon="4.985080">
						<ele>23</ele>
						<time>2025-04-28T19:04:14Z</time>
					</trkpt>
					<trkpt lat="43.517490" lon="4.985160">
						<ele>23</ele>
						<time>2025-04-28T19:04:19Z</time>
					</trkpt>
					<trkpt lat="43.516940" lon="4.985200">
						<ele>18</ele>
						<time>2025-04-28T19:04:29Z</time>
					</trkpt>
					<trkpt lat="43.516640" lon="4.985240">
						<ele>15</ele>
						<time>2025-04-28T19:04:34Z</time>
					</trkpt>
					<trkpt lat="43.516560" lon="4.985220">
						<ele>14</ele>
						<time>2025-04-28T19:04:36Z</time>
					</trkpt>
					<trkpt lat="43.516350" lon="4.985110">
						<ele>14</ele>
						<time>2025-04-28T19:04:40Z</time>
					</trkpt>
					<trkpt lat="43.515930" lon="4.986020">
						<ele>7</ele>
						<time>2025-04-28T19:04:54Z</time>
					</trkpt>
					<trkpt lat="43.515460" lon="4.986350">
						<ele>6</ele>
						<time>2025-04-28T19:05:03Z</time>
					</trkpt>
					<trkpt lat="43.515090" lon="4.986610">
						<ele>5</ele>
						<time>2025-04-28T19:05:10Z</time>
					</trkpt>
					<trkpt lat="43.513940" lon="4.985980">
						<ele>7</ele>
						<time>2025-04-28T19:05:32Z</time>
					</trkpt>
					<trkpt lat="43.513760" lon="4.986270">
						<ele>7</ele>
						<time>2025-04-28T19:05:37Z</time>
					</trkpt>
					<trkpt lat="43.513610" lon="4.986720">
						<ele>8</ele>
						<time>2025-04-28T19:05:44Z</time>
					</trkpt>
					<trkpt lat="43.513590" lon="4.987190">
						<ele>11</ele>
						<time>2025-04-28T19:05:50Z</time>
					</trkpt>
					<trkpt lat="43.513090" lon="4.987350">
						<ele>13</ele>
						<time>2025-04-28T19:05:59Z</time>
					</trkpt>
					<trkpt lat="43.512720" lon="4.987680">
						<ele>15</ele>
						<time>2025-04-28T19:06:07Z</time>
					</trkpt>
					<trkpt lat="43.512220" lon="4.987910">
						<ele>14</ele>
						<time>2025-04-28T19:06:16Z</time>
					</trkpt>
					<trkpt lat="43.511430" lon="4.988040">
						<ele>15</ele>
						<time>2025-04-28T19:06:30Z</time>
					</trkpt>
					<trkpt lat="43.511380" lon="4.988080">
						<ele>15</ele>
						<time>2025-04-28T19:06:31Z</time>
					</trkpt>
					<trkpt lat="43.510820" lon="4.988160">
						<ele>15</ele>
						<time>2025-04-28T19:06:41Z</time>
					</trkpt>
					<trkpt lat="43.510710" lon="4.988110">
						<ele>15</ele>
						<time>2025-04-28T19:06:43Z</time>
					</trkpt>
					<trkpt lat="43.510660" lon="4.988060">
						<ele>15</ele>
						<time>2025-04-28T19:06:45Z</time>
					</trkpt>
					<trkpt lat="43.510620" lon="4.988060">
						<ele>15</ele>
						<time>2025-04-28T19:06:45Z</time>
					</trkpt>
					<trkpt lat="43.510570" lon="4.988120">
						<ele>15</ele>
						<time>2025-04-28T19:06:46Z</time>
					</trkpt>
					<trkpt lat="43.510560" lon="4.988220">
						<ele>16</ele>
						<time>2025-04-28T19:06:48Z</time>
					</trkpt>
					<trkpt lat="43.510500" lon="4.988380">
						<ele>16</ele>
						<time>2025-04-28T19:06:50Z</time>
					</trkpt>
					<trkpt lat="43.509800" lon="4.988900">
						<ele>19</ele>
						<time>2025-04-28T19:07:04Z</time>
					</trkpt>
					<trkpt lat="43.508670" lon="4.989830">
						<ele>22</ele>
						<time>2025-04-28T19:07:28Z</time>
					</trkpt>
					<trkpt lat="43.508490" lon="4.989920">
						<ele>23</ele>
						<time>2025-04-28T19:07:31Z</time>
					</trkpt>
					<trkpt lat="43.508330" lon="4.989970">
						<ele>23</ele>
						<time>2025-04-28T19:07:34Z</time>
					</trkpt>
					<trkpt lat="43.508200" lon="4.989980">
						<ele>23</ele>
						<time>2025-04-28T19:07:36Z</time>
					</trkpt>
					<trkpt lat="43.508150" lon="4.989950">
						<ele>23</ele>
						<time>2025-04-28T19:07:37Z</time>
					</trkpt>
					<trkpt lat="43.508080" lon="4.989910">
						<ele>22</ele>
						<time>2025-04-28T19:07:39Z</time>
					</trkpt>
					<trkpt lat="43.508050" lon="4.989920">
						<ele>22</ele>
						<time>2025-04-28T19:07:39Z</time>
					</trkpt>
					<trkpt lat="43.508010" lon="4.989970">
						<ele>23</ele>
						<time>2025-04-28T19:07:40Z</time>
					</trkpt>
					<trkpt lat="43.507880" lon="4.990020">
						<ele>23</ele>
						<time>2025-04-28T19:07:43Z</time>
					</trkpt>
					<trkpt lat="43.507460" lon="4.990040">
						<ele>23</ele>
						<time>2025-04-28T19:07:50Z</time>
					</trkpt>
					<trkpt lat="43.507160" lon="4.990090">
						<ele>24</ele>
						<time>2025-04-28T19:07:55Z</time>
					</trkpt>
					<trkpt lat="43.506710" lon="4.990260">
						<ele>24</ele>
						<time>2025-04-28T19:08:04Z</time>
					</trkpt>
					<trkpt lat="43.506410" lon="4.990340">
						<ele>24</ele>
						<time>2025-04-28T19:08:09Z</time>
					</trkpt>
					<trkpt lat="43.505880" lon="4.990370">
						<ele>24</ele>
						<time>2025-04-28T19:08:19Z</time>
					</trkpt>
					<trkpt lat="43.505610" lon="4.990400">
						<ele>24</ele>
						<time>2025-04-28T19:08:23Z</time>
					</trkpt>
					<trkpt lat="43.505260" lon="4.990530">
						<ele>25</ele>
						<time>2025-04-28T19:08:30Z</time>
					</trkpt>
					<trkpt lat="43.503740" lon="4.991320">
						<ele>27</ele>
						<time>2025-04-28T19:08:59Z</time>
					</trkpt>
					<trkpt lat="43.502860" lon="4.991650">
						<ele>28</ele>
						<time>2025-04-28T19:09:15Z</time>
					</trkpt>
					<trkpt lat="43.502730" lon="4.991830">
						<ele>29</ele>
						<time>2025-04-28T19:09:18Z</time>
					</trkpt>
					<trkpt lat="43.502710" lon="4.991900">
						<ele>29</ele>
						<time>2025-04-28T19:09:19Z</time>
					</trkpt>
					<trkpt lat="43.502620" lon="4.992290">
						<ele>31</ele>
						<time>2025-04-28T19:09:24Z</time>
					</trkpt>
					<trkpt lat="43.502540" lon="4.992760">
						<ele>32</ele>
						<time>2025-04-28T19:09:31Z</time>
					</trkpt>
					<trkpt lat="43.502480" lon="4.992890">
						<ele>32</ele>
						<time>2025-04-28T19:09:33Z</time>
					</trkpt>
					<trkpt lat="43.502310" lon="4.993160">
						<ele>33</ele>
						<time>2025-04-28T19:09:37Z</time>
					</trkpt>
					<trkpt lat="43.502320" lon="4.993310">
						<ele>33</ele>
						<time>2025-04-28T19:09:39Z</time>
					</trkpt>
					<trkpt lat="43.502220" lon="4.993390">
						<ele>33</ele>
						<time>2025-04-28T19:09:41Z</time>
					</trkpt>
					<trkpt lat="43.502170" lon="4.993450">
						<ele>33</ele>
						<time>2025-04-28T19:09:42Z</time>
					</trkpt>
					<trkpt lat="43.501780" lon="4.993270">
						<ele>31</ele>
						<time>2025-04-28T19:09:50Z</time>
					</trkpt>
					<trkpt lat="43.501160" lon="4.993210">
						<ele>30</ele>
						<time>2025-04-28T19:10:01Z</time>
					</trkpt>
					<trkpt lat="43.501140" lon="4.993470">
						<ele>31</ele>
						<time>2025-04-28T19:10:04Z</time>
					</trkpt>
					<trkpt lat="43.501100" lon="4.994050">
						<ele>32</ele>
						<time>2025-04-28T19:10:12Z</time>
					</trkpt>
					<trkpt lat="43.501050" lon="4.994890">
						<ele>33</ele>
						<time>2025-04-28T19:10:23Z</time>
					</trkpt>
					</trkseg>
				</trk>
			</gpx>